<?xml version="1.0" encoding="UTF-8" standalone="no" ?>
<gpx xmlns="http://www.topografix.com/GPX/1/1" xmlns:xsi="http://www.w3.org/2001/XMLSchema-instance" xsi:schemaLocation="http://www.topografix.com/GPX/1/1 http://www.topografix.com/GPX/1/1/gpx.xsd" version="1.1" creator="VisuGPX - https://www.visugpx.com">
  <metadata>
    <name>Le Hourdel - La molière d\'Aval </name>
    <desc><![CDATA[Randonnée de 11km en boucle]]></desc>
  </metadata>
  <trk>
    <name><![CDATA[La Molière d'aval _R]]></name>
    <trkseg>
      <trkpt lat="50.20267" lon="1.52277">
        <ele>-38.8</ele>
        <time>2013-04-29T12:34:43Z</time>
      </trkpt>
      <trkpt lat="50.20259" lon="1.52259">
        <ele>-34.95</ele>
        <time>2013-04-29T12:34:56Z</time>
      </trkpt>
      <trkpt lat="50.20257" lon="1.52259">
        <ele>-32.07</ele>
        <time>2013-04-29T12:34:58Z</time>
      </trkpt>
      <trkpt lat="50.20257" lon="1.52259">
        <ele>-27.74</ele>
        <time>2013-04-29T12:35:01Z</time>
      </trkpt>
      <trkpt lat="50.20256" lon="1.52259">
        <ele>-23.41</ele>
        <time>2013-04-29T12:35:04Z</time>
      </trkpt>
      <trkpt lat="50.20256" lon="1.52259">
        <ele>-20.05</ele>
        <time>2013-04-29T12:35:07Z</time>
      </trkpt>
      <trkpt lat="50.20255" lon="1.52259">
        <ele>-18.13</ele>
        <time>2013-04-29T12:35:09Z</time>
      </trkpt>
      <trkpt lat="50.20255" lon="1.52259">
        <ele>-14.76</ele>
        <time>2013-04-29T12:35:13Z</time>
      </trkpt>
      <trkpt lat="50.20256" lon="1.52259">
        <ele>-11.4</ele>
        <time>2013-04-29T12:35:17Z</time>
      </trkpt>
      <trkpt lat="50.20256" lon="1.52259">
        <ele>-8.03</ele>
        <time>2013-04-29T12:35:22Z</time>
      </trkpt>
      <trkpt lat="50.20255" lon="1.52259">
        <ele>-5.15</ele>
        <time>2013-04-29T12:35:27Z</time>
      </trkpt>
      <trkpt lat="50.20255" lon="1.52259">
        <ele>-0.34</ele>
        <time>2013-04-29T12:35:33Z</time>
      </trkpt>
      <trkpt lat="50.20255" lon="1.52258">
        <ele>3.02</ele>
        <time>2013-04-29T12:35:38Z</time>
      </trkpt>
      <trkpt lat="50.20255" lon="1.52258">
        <ele>3.02</ele>
        <time>2013-04-29T12:35:39Z</time>
      </trkpt>
      <trkpt lat="50.20256" lon="1.52258">
        <ele>2.06</ele>
        <time>2013-04-29T12:35:43Z</time>
      </trkpt>
      <trkpt lat="50.20253" lon="1.52277">
        <ele>7.35</ele>
        <time>2013-04-29T12:35:53Z</time>
      </trkpt>
      <trkpt lat="50.20254" lon="1.52276">
        <ele>7.35</ele>
        <time>2013-04-29T12:35:54Z</time>
      </trkpt>
      <trkpt lat="50.20255" lon="1.52271">
        <ele>9.75</ele>
        <time>2013-04-29T12:36:02Z</time>
      </trkpt>
      <trkpt lat="50.20255" lon="1.52272">
        <ele>9.27</ele>
        <time>2013-04-29T12:36:15Z</time>
      </trkpt>
      <trkpt lat="50.20253" lon="1.52274">
        <ele>9.27</ele>
        <time>2013-04-29T12:36:31Z</time>
      </trkpt>
      <trkpt lat="50.20251" lon="1.52275">
        <ele>12.15</ele>
        <time>2013-04-29T12:36:47Z</time>
      </trkpt>
      <trkpt lat="50.20251" lon="1.52275">
        <ele>12.15</ele>
        <time>2013-04-29T12:36:48Z</time>
      </trkpt>
      <trkpt lat="50.20251" lon="1.52274">
        <ele>10.71</ele>
        <time>2013-04-29T12:36:52Z</time>
      </trkpt>
      <trkpt lat="50.20255" lon="1.52271">
        <ele>10.71</ele>
        <time>2013-04-29T12:37:23Z</time>
      </trkpt>
      <trkpt lat="50.20254" lon="1.52272">
        <ele>11.19</ele>
        <time>2013-04-29T12:37:53Z</time>
      </trkpt>
      <trkpt lat="50.20254" lon="1.52278">
        <ele>10.71</ele>
        <time>2013-04-29T12:38:18Z</time>
      </trkpt>
      <trkpt lat="50.20256" lon="1.52281">
        <ele>10.71</ele>
        <time>2013-04-29T12:38:21Z</time>
      </trkpt>
      <trkpt lat="50.20258" lon="1.52284">
        <ele>10.71</ele>
        <time>2013-04-29T12:38:24Z</time>
      </trkpt>
      <trkpt lat="50.20263" lon="1.52292">
        <ele>11.19</ele>
        <time>2013-04-29T12:38:30Z</time>
      </trkpt>
      <trkpt lat="50.20264" lon="1.52312">
        <ele>11.67</ele>
        <time>2013-04-29T12:38:47Z</time>
      </trkpt>
      <trkpt lat="50.20264" lon="1.52311">
        <ele>10.71</ele>
        <time>2013-04-29T12:38:48Z</time>
      </trkpt>
      <trkpt lat="50.20264" lon="1.52305">
        <ele>9.75</ele>
        <time>2013-04-29T12:38:51Z</time>
      </trkpt>
      <trkpt lat="50.20262" lon="1.52273">
        <ele>8.79</ele>
        <time>2013-04-29T12:39:11Z</time>
      </trkpt>
      <trkpt lat="50.20263" lon="1.52266">
        <ele>10.71</ele>
        <time>2013-04-29T12:39:16Z</time>
      </trkpt>
      <trkpt lat="50.20263" lon="1.52266">
        <ele>10.71</ele>
        <time>2013-04-29T12:39:17Z</time>
      </trkpt>
      <trkpt lat="50.20259" lon="1.52265">
        <ele>8.79</ele>
        <time>2013-04-29T12:39:22Z</time>
      </trkpt>
      <trkpt lat="50.20257" lon="1.52265">
        <ele>10.71</ele>
        <time>2013-04-29T12:39:24Z</time>
      </trkpt>
      <trkpt lat="50.20257" lon="1.52266">
        <ele>10.71</ele>
        <time>2013-04-29T12:39:25Z</time>
      </trkpt>
      <trkpt lat="50.20254" lon="1.5227">
        <ele>11.67</ele>
        <time>2013-04-29T12:39:40Z</time>
      </trkpt>
      <trkpt lat="50.20253" lon="1.52272">
        <ele>10.23</ele>
        <time>2013-04-29T12:40:09Z</time>
      </trkpt>
      <trkpt lat="50.20252" lon="1.52271">
        <ele>11.19</ele>
        <time>2013-04-29T12:40:23Z</time>
      </trkpt>
      <trkpt lat="50.20254" lon="1.52271">
        <ele>10.71</ele>
        <time>2013-04-29T12:40:43Z</time>
      </trkpt>
      <trkpt lat="50.20258" lon="1.52271">
        <ele>11.19</ele>
        <time>2013-04-29T12:41:09Z</time>
      </trkpt>
      <trkpt lat="50.20263" lon="1.52282">
        <ele>11.19</ele>
        <time>2013-04-29T12:41:18Z</time>
      </trkpt>
      <trkpt lat="50.20265" lon="1.52303">
        <ele>10.23</ele>
        <time>2013-04-29T12:41:36Z</time>
      </trkpt>
      <trkpt lat="50.20267" lon="1.52332">
        <ele>10.71</ele>
        <time>2013-04-29T12:41:52Z</time>
      </trkpt>
      <trkpt lat="50.20267" lon="1.52335">
        <ele>11.19</ele>
        <time>2013-04-29T12:41:54Z</time>
      </trkpt>
      <trkpt lat="50.20268" lon="1.52345">
        <ele>10.23</ele>
        <time>2013-04-29T12:41:59Z</time>
      </trkpt>
      <trkpt lat="50.20272" lon="1.52354">
        <ele>9.27</ele>
        <time>2013-04-29T12:42:04Z</time>
      </trkpt>
      <trkpt lat="50.20275" lon="1.5236">
        <ele>9.75</ele>
        <time>2013-04-29T12:42:10Z</time>
      </trkpt>
      <trkpt lat="50.20275" lon="1.52363">
        <ele>9.75</ele>
        <time>2013-04-29T12:42:12Z</time>
      </trkpt>
      <trkpt lat="50.20277" lon="1.52393">
        <ele>9.75</ele>
        <time>2013-04-29T12:42:29Z</time>
      </trkpt>
      <trkpt lat="50.2028" lon="1.52421">
        <ele>8.79</ele>
        <time>2013-04-29T12:42:46Z</time>
      </trkpt>
      <trkpt lat="50.20279" lon="1.52433">
        <ele>9.27</ele>
        <time>2013-04-29T12:42:53Z</time>
      </trkpt>
      <trkpt lat="50.20282" lon="1.5246">
        <ele>8.79</ele>
        <time>2013-04-29T12:43:07Z</time>
      </trkpt>
      <trkpt lat="50.20284" lon="1.52479">
        <ele>8.79</ele>
        <time>2013-04-29T12:43:17Z</time>
      </trkpt>
      <trkpt lat="50.20287" lon="1.52511">
        <ele>8.79</ele>
        <time>2013-04-29T12:43:36Z</time>
      </trkpt>
      <trkpt lat="50.20287" lon="1.52523">
        <ele>8.79</ele>
        <time>2013-04-29T12:43:42Z</time>
      </trkpt>
      <trkpt lat="50.20289" lon="1.52553">
        <ele>8.79</ele>
        <time>2013-04-29T12:43:58Z</time>
      </trkpt>
      <trkpt lat="50.2029" lon="1.5257">
        <ele>8.79</ele>
        <time>2013-04-29T12:44:10Z</time>
      </trkpt>
      <trkpt lat="50.20291" lon="1.52585">
        <ele>8.79</ele>
        <time>2013-04-29T12:44:18Z</time>
      </trkpt>
      <trkpt lat="50.20287" lon="1.52595">
        <ele>9.27</ele>
        <time>2013-04-29T12:44:25Z</time>
      </trkpt>
      <trkpt lat="50.20288" lon="1.52616">
        <ele>9.27</ele>
        <time>2013-04-29T12:44:37Z</time>
      </trkpt>
      <trkpt lat="50.2029" lon="1.52619">
        <ele>9.75</ele>
        <time>2013-04-29T12:44:39Z</time>
      </trkpt>
      <trkpt lat="50.20291" lon="1.5265">
        <ele>8.79</ele>
        <time>2013-04-29T12:44:55Z</time>
      </trkpt>
      <trkpt lat="50.20291" lon="1.5269">
        <ele>7.83</ele>
        <time>2013-04-29T12:45:16Z</time>
      </trkpt>
      <trkpt lat="50.2029" lon="1.52719">
        <ele>7.83</ele>
        <time>2013-04-29T12:45:30Z</time>
      </trkpt>
      <trkpt lat="50.2029" lon="1.52752">
        <ele>6.87</ele>
        <time>2013-04-29T12:45:48Z</time>
      </trkpt>
      <trkpt lat="50.2029" lon="1.52781">
        <ele>7.35</ele>
        <time>2013-04-29T12:46:04Z</time>
      </trkpt>
      <trkpt lat="50.2029" lon="1.52812">
        <ele>7.35</ele>
        <time>2013-04-29T12:46:19Z</time>
      </trkpt>
      <trkpt lat="50.2029" lon="1.52815">
        <ele>7.35</ele>
        <time>2013-04-29T12:46:21Z</time>
      </trkpt>
      <trkpt lat="50.20286" lon="1.52848">
        <ele>7.83</ele>
        <time>2013-04-29T12:46:37Z</time>
      </trkpt>
      <trkpt lat="50.20285" lon="1.52884">
        <ele>7.83</ele>
        <time>2013-04-29T12:46:55Z</time>
      </trkpt>
      <trkpt lat="50.20283" lon="1.52911">
        <ele>7.83</ele>
        <time>2013-04-29T12:47:09Z</time>
      </trkpt>
      <trkpt lat="50.20283" lon="1.52939">
        <ele>7.83</ele>
        <time>2013-04-29T12:47:24Z</time>
      </trkpt>
      <trkpt lat="50.20282" lon="1.52973">
        <ele>7.35</ele>
        <time>2013-04-29T12:47:41Z</time>
      </trkpt>
      <trkpt lat="50.20281" lon="1.53007">
        <ele>7.35</ele>
        <time>2013-04-29T12:47:58Z</time>
      </trkpt>
      <trkpt lat="50.20279" lon="1.53036">
        <ele>7.83</ele>
        <time>2013-04-29T12:48:13Z</time>
      </trkpt>
      <trkpt lat="50.20279" lon="1.53049">
        <ele>6.87</ele>
        <time>2013-04-29T12:48:33Z</time>
      </trkpt>
      <trkpt lat="50.20277" lon="1.53077">
        <ele>7.83</ele>
        <time>2013-04-29T12:48:48Z</time>
      </trkpt>
      <trkpt lat="50.20278" lon="1.53092">
        <ele>7.35</ele>
        <time>2013-04-29T12:49:03Z</time>
      </trkpt>
      <trkpt lat="50.20279" lon="1.53098">
        <ele>7.83</ele>
        <time>2013-04-29T12:49:33Z</time>
      </trkpt>
      <trkpt lat="50.20276" lon="1.53132">
        <ele>7.83</ele>
        <time>2013-04-29T12:49:49Z</time>
      </trkpt>
      <trkpt lat="50.20277" lon="1.53162">
        <ele>7.35</ele>
        <time>2013-04-29T12:50:05Z</time>
      </trkpt>
      <trkpt lat="50.20277" lon="1.5317">
        <ele>7.35</ele>
        <time>2013-04-29T12:50:11Z</time>
      </trkpt>
      <trkpt lat="50.20275" lon="1.53183">
        <ele>7.35</ele>
        <time>2013-04-29T12:50:16Z</time>
      </trkpt>
      <trkpt lat="50.20274" lon="1.53205">
        <ele>6.87</ele>
        <time>2013-04-29T12:50:30Z</time>
      </trkpt>
      <trkpt lat="50.20271" lon="1.53233">
        <ele>6.87</ele>
        <time>2013-04-29T12:50:44Z</time>
      </trkpt>
      <trkpt lat="50.20271" lon="1.53262">
        <ele>6.87</ele>
        <time>2013-04-29T12:50:59Z</time>
      </trkpt>
      <trkpt lat="50.20269" lon="1.53293">
        <ele>6.87</ele>
        <time>2013-04-29T12:51:15Z</time>
      </trkpt>
      <trkpt lat="50.20269" lon="1.53322">
        <ele>6.87</ele>
        <time>2013-04-29T12:51:28Z</time>
      </trkpt>
      <trkpt lat="50.20269" lon="1.53345">
        <ele>6.87</ele>
        <time>2013-04-29T12:51:41Z</time>
      </trkpt>
      <trkpt lat="50.20269" lon="1.53376">
        <ele>7.35</ele>
        <time>2013-04-29T12:51:58Z</time>
      </trkpt>
      <trkpt lat="50.20268" lon="1.53378">
        <ele>7.35</ele>
        <time>2013-04-29T12:51:59Z</time>
      </trkpt>
      <trkpt lat="50.2026" lon="1.5341">
        <ele>6.39</ele>
        <time>2013-04-29T12:52:15Z</time>
      </trkpt>
      <trkpt lat="50.20252" lon="1.53439">
        <ele>6.39</ele>
        <time>2013-04-29T12:52:32Z</time>
      </trkpt>
      <trkpt lat="50.20245" lon="1.53462">
        <ele>6.39</ele>
        <time>2013-04-29T12:52:46Z</time>
      </trkpt>
      <trkpt lat="50.20236" lon="1.53488">
        <ele>5.91</ele>
        <time>2013-04-29T12:52:59Z</time>
      </trkpt>
      <trkpt lat="50.20235" lon="1.53501">
        <ele>6.39</ele>
        <time>2013-04-29T12:53:08Z</time>
      </trkpt>
      <trkpt lat="50.20228" lon="1.53538">
        <ele>6.39</ele>
        <time>2013-04-29T12:53:26Z</time>
      </trkpt>
      <trkpt lat="50.20221" lon="1.53565">
        <ele>6.39</ele>
        <time>2013-04-29T12:53:40Z</time>
      </trkpt>
      <trkpt lat="50.20219" lon="1.53577">
        <ele>6.39</ele>
        <time>2013-04-29T12:53:48Z</time>
      </trkpt>
      <trkpt lat="50.20214" lon="1.5359">
        <ele>6.39</ele>
        <time>2013-04-29T12:53:54Z</time>
      </trkpt>
      <trkpt lat="50.20213" lon="1.53616">
        <ele>6.39</ele>
        <time>2013-04-29T12:54:09Z</time>
      </trkpt>
      <trkpt lat="50.20205" lon="1.53632">
        <ele>5.91</ele>
        <time>2013-04-29T12:54:18Z</time>
      </trkpt>
      <trkpt lat="50.202" lon="1.53637">
        <ele>5.91</ele>
        <time>2013-04-29T12:54:26Z</time>
      </trkpt>
      <trkpt lat="50.20186" lon="1.53658">
        <ele>5.42</ele>
        <time>2013-04-29T12:54:42Z</time>
      </trkpt>
      <trkpt lat="50.2017" lon="1.53676">
        <ele>5.42</ele>
        <time>2013-04-29T12:54:58Z</time>
      </trkpt>
      <trkpt lat="50.20155" lon="1.53699">
        <ele>5.91</ele>
        <time>2013-04-29T12:55:14Z</time>
      </trkpt>
      <trkpt lat="50.20141" lon="1.53717">
        <ele>5.42</ele>
        <time>2013-04-29T12:55:29Z</time>
      </trkpt>
      <trkpt lat="50.20128" lon="1.53739">
        <ele>5.42</ele>
        <time>2013-04-29T12:55:47Z</time>
      </trkpt>
      <trkpt lat="50.20111" lon="1.53758">
        <ele>4.94</ele>
        <time>2013-04-29T12:56:01Z</time>
      </trkpt>
      <trkpt lat="50.20096" lon="1.53773">
        <ele>5.42</ele>
        <time>2013-04-29T12:56:16Z</time>
      </trkpt>
      <trkpt lat="50.20091" lon="1.53778">
        <ele>5.42</ele>
        <time>2013-04-29T12:56:22Z</time>
      </trkpt>
      <trkpt lat="50.20083" lon="1.53781">
        <ele>5.91</ele>
        <time>2013-04-29T12:56:27Z</time>
      </trkpt>
      <trkpt lat="50.20068" lon="1.53795">
        <ele>5.91</ele>
        <time>2013-04-29T12:56:44Z</time>
      </trkpt>
      <trkpt lat="50.20062" lon="1.53806">
        <ele>5.42</ele>
        <time>2013-04-29T12:56:56Z</time>
      </trkpt>
      <trkpt lat="50.20058" lon="1.53813">
        <ele>5.42</ele>
        <time>2013-04-29T12:57:00Z</time>
      </trkpt>
      <trkpt lat="50.20046" lon="1.53828">
        <ele>5.42</ele>
        <time>2013-04-29T12:57:14Z</time>
      </trkpt>
      <trkpt lat="50.20032" lon="1.53843">
        <ele>5.42</ele>
        <time>2013-04-29T12:57:28Z</time>
      </trkpt>
      <trkpt lat="50.20014" lon="1.53858">
        <ele>5.42</ele>
        <time>2013-04-29T12:57:43Z</time>
      </trkpt>
      <trkpt lat="50.20013" lon="1.53859">
        <ele>5.42</ele>
        <time>2013-04-29T12:57:45Z</time>
      </trkpt>
      <trkpt lat="50.19995" lon="1.53868">
        <ele>4.46</ele>
        <time>2013-04-29T12:58:01Z</time>
      </trkpt>
      <trkpt lat="50.1998" lon="1.53883">
        <ele>5.42</ele>
        <time>2013-04-29T12:58:15Z</time>
      </trkpt>
      <trkpt lat="50.19967" lon="1.53892">
        <ele>5.42</ele>
        <time>2013-04-29T12:58:27Z</time>
      </trkpt>
      <trkpt lat="50.19954" lon="1.539">
        <ele>5.42</ele>
        <time>2013-04-29T12:58:40Z</time>
      </trkpt>
      <trkpt lat="50.19942" lon="1.53913">
        <ele>4.94</ele>
        <time>2013-04-29T12:58:53Z</time>
      </trkpt>
      <trkpt lat="50.1994" lon="1.53916">
        <ele>5.42</ele>
        <time>2013-04-29T12:58:56Z</time>
      </trkpt>
      <trkpt lat="50.19924" lon="1.53925">
        <ele>5.42</ele>
        <time>2013-04-29T12:59:11Z</time>
      </trkpt>
      <trkpt lat="50.19907" lon="1.53936">
        <ele>5.42</ele>
        <time>2013-04-29T12:59:26Z</time>
      </trkpt>
      <trkpt lat="50.19887" lon="1.53952">
        <ele>4.94</ele>
        <time>2013-04-29T12:59:42Z</time>
      </trkpt>
      <trkpt lat="50.19864" lon="1.53969">
        <ele>5.42</ele>
        <time>2013-04-29T13:00:04Z</time>
      </trkpt>
      <trkpt lat="50.19843" lon="1.53981">
        <ele>5.42</ele>
        <time>2013-04-29T13:00:21Z</time>
      </trkpt>
      <trkpt lat="50.19825" lon="1.53995">
        <ele>5.42</ele>
        <time>2013-04-29T13:00:37Z</time>
      </trkpt>
      <trkpt lat="50.19822" lon="1.53998">
        <ele>5.42</ele>
        <time>2013-04-29T13:00:41Z</time>
      </trkpt>
      <trkpt lat="50.19796" lon="1.54013">
        <ele>4.94</ele>
        <time>2013-04-29T13:01:02Z</time>
      </trkpt>
      <trkpt lat="50.19778" lon="1.54023">
        <ele>4.46</ele>
        <time>2013-04-29T13:01:19Z</time>
      </trkpt>
      <trkpt lat="50.19754" lon="1.54039">
        <ele>4.46</ele>
        <time>2013-04-29T13:01:36Z</time>
      </trkpt>
      <trkpt lat="50.19739" lon="1.54051">
        <ele>5.91</ele>
        <time>2013-04-29T13:01:52Z</time>
      </trkpt>
      <trkpt lat="50.19732" lon="1.54055">
        <ele>4.94</ele>
        <time>2013-04-29T13:01:57Z</time>
      </trkpt>
      <trkpt lat="50.19716" lon="1.5407">
        <ele>4.94</ele>
        <time>2013-04-29T13:02:14Z</time>
      </trkpt>
      <trkpt lat="50.19694" lon="1.54085">
        <ele>4.46</ele>
        <time>2013-04-29T13:02:31Z</time>
      </trkpt>
      <trkpt lat="50.19681" lon="1.54097">
        <ele>4.94</ele>
        <time>2013-04-29T13:02:45Z</time>
      </trkpt>
      <trkpt lat="50.19662" lon="1.54112">
        <ele>4.94</ele>
        <time>2013-04-29T13:03:00Z</time>
      </trkpt>
      <trkpt lat="50.19649" lon="1.54126">
        <ele>5.42</ele>
        <time>2013-04-29T13:03:14Z</time>
      </trkpt>
      <trkpt lat="50.19629" lon="1.54146">
        <ele>5.42</ele>
        <time>2013-04-29T13:03:33Z</time>
      </trkpt>
      <trkpt lat="50.19606" lon="1.54168">
        <ele>4.94</ele>
        <time>2013-04-29T13:03:52Z</time>
      </trkpt>
      <trkpt lat="50.19588" lon="1.54192">
        <ele>5.42</ele>
        <time>2013-04-29T13:04:11Z</time>
      </trkpt>
      <trkpt lat="50.19571" lon="1.54209">
        <ele>5.42</ele>
        <time>2013-04-29T13:04:29Z</time>
      </trkpt>
      <trkpt lat="50.19547" lon="1.54233">
        <ele>4.94</ele>
        <time>2013-04-29T13:04:50Z</time>
      </trkpt>
      <trkpt lat="50.19524" lon="1.54251">
        <ele>4.94</ele>
        <time>2013-04-29T13:05:08Z</time>
      </trkpt>
      <trkpt lat="50.195" lon="1.54274">
        <ele>4.94</ele>
        <time>2013-04-29T13:05:31Z</time>
      </trkpt>
      <trkpt lat="50.19479" lon="1.54293">
        <ele>4.46</ele>
        <time>2013-04-29T13:05:48Z</time>
      </trkpt>
      <trkpt lat="50.19462" lon="1.54312">
        <ele>5.42</ele>
        <time>2013-04-29T13:06:07Z</time>
      </trkpt>
      <trkpt lat="50.19448" lon="1.54323">
        <ele>4.94</ele>
        <time>2013-04-29T13:06:22Z</time>
      </trkpt>
      <trkpt lat="50.19444" lon="1.54325">
        <ele>4.94</ele>
        <time>2013-04-29T13:06:42Z</time>
      </trkpt>
      <trkpt lat="50.19445" lon="1.54327">
        <ele>4.94</ele>
        <time>2013-04-29T13:07:07Z</time>
      </trkpt>
      <trkpt lat="50.19428" lon="1.54345">
        <ele>4.46</ele>
        <time>2013-04-29T13:07:24Z</time>
      </trkpt>
      <trkpt lat="50.19411" lon="1.54355">
        <ele>3.98</ele>
        <time>2013-04-29T13:07:37Z</time>
      </trkpt>
      <trkpt lat="50.1941" lon="1.54358">
        <ele>3.5</ele>
        <time>2013-04-29T13:07:40Z</time>
      </trkpt>
      <trkpt lat="50.19419" lon="1.54376">
        <ele>3.98</ele>
        <time>2013-04-29T13:07:54Z</time>
      </trkpt>
      <trkpt lat="50.19431" lon="1.54396">
        <ele>3.5</ele>
        <time>2013-04-29T13:08:08Z</time>
      </trkpt>
      <trkpt lat="50.19443" lon="1.54418">
        <ele>3.98</ele>
        <time>2013-04-29T13:08:23Z</time>
      </trkpt>
      <trkpt lat="50.19452" lon="1.54439">
        <ele>3.98</ele>
        <time>2013-04-29T13:08:36Z</time>
      </trkpt>
      <trkpt lat="50.19462" lon="1.5446">
        <ele>3.98</ele>
        <time>2013-04-29T13:08:50Z</time>
      </trkpt>
      <trkpt lat="50.19473" lon="1.54485">
        <ele>4.46</ele>
        <time>2013-04-29T13:09:04Z</time>
      </trkpt>
      <trkpt lat="50.19481" lon="1.54501">
        <ele>3.98</ele>
        <time>2013-04-29T13:09:17Z</time>
      </trkpt>
      <trkpt lat="50.19493" lon="1.54524">
        <ele>3.5</ele>
        <time>2013-04-29T13:09:31Z</time>
      </trkpt>
      <trkpt lat="50.19506" lon="1.5455">
        <ele>3.98</ele>
        <time>2013-04-29T13:09:48Z</time>
      </trkpt>
      <trkpt lat="50.19516" lon="1.5458">
        <ele>3.5</ele>
        <time>2013-04-29T13:10:04Z</time>
      </trkpt>
      <trkpt lat="50.19524" lon="1.54596">
        <ele>3.5</ele>
        <time>2013-04-29T13:10:16Z</time>
      </trkpt>
      <trkpt lat="50.19527" lon="1.54607">
        <ele>3.5</ele>
        <time>2013-04-29T13:10:21Z</time>
      </trkpt>
      <trkpt lat="50.19535" lon="1.54628">
        <ele>3.02</ele>
        <time>2013-04-29T13:10:35Z</time>
      </trkpt>
      <trkpt lat="50.1954" lon="1.54653">
        <ele>3.5</ele>
        <time>2013-04-29T13:10:48Z</time>
      </trkpt>
      <trkpt lat="50.19542" lon="1.54674">
        <ele>3.02</ele>
        <time>2013-04-29T13:11:03Z</time>
      </trkpt>
      <trkpt lat="50.19548" lon="1.547">
        <ele>3.5</ele>
        <time>2013-04-29T13:11:20Z</time>
      </trkpt>
      <trkpt lat="50.19556" lon="1.54725">
        <ele>4.46</ele>
        <time>2013-04-29T13:11:35Z</time>
      </trkpt>
      <trkpt lat="50.19566" lon="1.54754">
        <ele>4.46</ele>
        <time>2013-04-29T13:11:52Z</time>
      </trkpt>
      <trkpt lat="50.19569" lon="1.54761">
        <ele>3.98</ele>
        <time>2013-04-29T13:11:57Z</time>
      </trkpt>
      <trkpt lat="50.19578" lon="1.54787">
        <ele>3.5</ele>
        <time>2013-04-29T13:12:10Z</time>
      </trkpt>
      <trkpt lat="50.19586" lon="1.54816">
        <ele>3.98</ele>
        <time>2013-04-29T13:12:27Z</time>
      </trkpt>
      <trkpt lat="50.19588" lon="1.54824">
        <ele>4.46</ele>
        <time>2013-04-29T13:12:38Z</time>
      </trkpt>
      <trkpt lat="50.19596" lon="1.54842">
        <ele>3.98</ele>
        <time>2013-04-29T13:12:52Z</time>
      </trkpt>
      <trkpt lat="50.19606" lon="1.54872">
        <ele>3.98</ele>
        <time>2013-04-29T13:13:11Z</time>
      </trkpt>
      <trkpt lat="50.1961" lon="1.54883">
        <ele>3.98</ele>
        <time>2013-04-29T13:13:18Z</time>
      </trkpt>
      <trkpt lat="50.19613" lon="1.54891">
        <ele>4.46</ele>
        <time>2013-04-29T13:13:31Z</time>
      </trkpt>
      <trkpt lat="50.19612" lon="1.54892">
        <ele>4.46</ele>
        <time>2013-04-29T13:13:40Z</time>
      </trkpt>
      <trkpt lat="50.19623" lon="1.54922">
        <ele>3.98</ele>
        <time>2013-04-29T13:13:57Z</time>
      </trkpt>
      <trkpt lat="50.19631" lon="1.54943">
        <ele>5.42</ele>
        <time>2013-04-29T13:14:09Z</time>
      </trkpt>
      <trkpt lat="50.19638" lon="1.54963">
        <ele>4.46</ele>
        <time>2013-04-29T13:14:23Z</time>
      </trkpt>
      <trkpt lat="50.1964" lon="1.54968">
        <ele>3.98</ele>
        <time>2013-04-29T13:14:26Z</time>
      </trkpt>
      <trkpt lat="50.19652" lon="1.54992">
        <ele>3.98</ele>
        <time>2013-04-29T13:14:41Z</time>
      </trkpt>
      <trkpt lat="50.19662" lon="1.5501">
        <ele>3.98</ele>
        <time>2013-04-29T13:14:54Z</time>
      </trkpt>
      <trkpt lat="50.19657" lon="1.55014">
        <ele>4.94</ele>
        <time>2013-04-29T13:15:09Z</time>
      </trkpt>
      <trkpt lat="50.19647" lon="1.5503">
        <ele>3.98</ele>
        <time>2013-04-29T13:15:21Z</time>
      </trkpt>
      <trkpt lat="50.1963" lon="1.5504">
        <ele>3.02</ele>
        <time>2013-04-29T13:15:37Z</time>
      </trkpt>
      <trkpt lat="50.19627" lon="1.55045">
        <ele>3.5</ele>
        <time>2013-04-29T13:15:40Z</time>
      </trkpt>
      <trkpt lat="50.19631" lon="1.55068">
        <ele>2.54</ele>
        <time>2013-04-29T13:15:55Z</time>
      </trkpt>
      <trkpt lat="50.19637" lon="1.55087">
        <ele>3.02</ele>
        <time>2013-04-29T13:16:10Z</time>
      </trkpt>
      <trkpt lat="50.19642" lon="1.55085">
        <ele>3.02</ele>
        <time>2013-04-29T13:16:15Z</time>
      </trkpt>
      <trkpt lat="50.19644" lon="1.55084">
        <ele>2.54</ele>
        <time>2013-04-29T13:16:17Z</time>
      </trkpt>
      <trkpt lat="50.1965" lon="1.55092">
        <ele>3.02</ele>
        <time>2013-04-29T13:16:24Z</time>
      </trkpt>
      <trkpt lat="50.19652" lon="1.55099">
        <ele>2.06</ele>
        <time>2013-04-29T13:16:28Z</time>
      </trkpt>
      <trkpt lat="50.19655" lon="1.55104">
        <ele>3.02</ele>
        <time>2013-04-29T13:16:34Z</time>
      </trkpt>
      <trkpt lat="50.19653" lon="1.55109">
        <ele>3.5</ele>
        <time>2013-04-29T13:16:43Z</time>
      </trkpt>
      <trkpt lat="50.19651" lon="1.55106">
        <ele>3.02</ele>
        <time>2013-04-29T13:17:05Z</time>
      </trkpt>
      <trkpt lat="50.19651" lon="1.55108">
        <ele>2.54</ele>
        <time>2013-04-29T13:17:29Z</time>
      </trkpt>
      <trkpt lat="50.19652" lon="1.55108">
        <ele>3.02</ele>
        <time>2013-04-29T13:17:54Z</time>
      </trkpt>
      <trkpt lat="50.19653" lon="1.5511">
        <ele>3.02</ele>
        <time>2013-04-29T13:18:15Z</time>
      </trkpt>
      <trkpt lat="50.19662" lon="1.55115">
        <ele>3.02</ele>
        <time>2013-04-29T13:18:27Z</time>
      </trkpt>
      <trkpt lat="50.19677" lon="1.5513">
        <ele>3.5</ele>
        <time>2013-04-29T13:18:43Z</time>
      </trkpt>
      <trkpt lat="50.19679" lon="1.55138">
        <ele>3.5</ele>
        <time>2013-04-29T13:19:00Z</time>
      </trkpt>
      <trkpt lat="50.19681" lon="1.55137">
        <ele>3.5</ele>
        <time>2013-04-29T13:19:33Z</time>
      </trkpt>
      <trkpt lat="50.19681" lon="1.5514">
        <ele>3.5</ele>
        <time>2013-04-29T13:20:03Z</time>
      </trkpt>
      <trkpt lat="50.1968" lon="1.55144">
        <ele>3.5</ele>
        <time>2013-04-29T13:20:31Z</time>
      </trkpt>
      <trkpt lat="50.19679" lon="1.55143">
        <ele>3.5</ele>
        <time>2013-04-29T13:20:53Z</time>
      </trkpt>
      <trkpt lat="50.19681" lon="1.55141">
        <ele>3.98</ele>
        <time>2013-04-29T13:21:19Z</time>
      </trkpt>
      <trkpt lat="50.19683" lon="1.55139">
        <ele>3.98</ele>
        <time>2013-04-29T13:21:35Z</time>
      </trkpt>
      <trkpt lat="50.19683" lon="1.55126">
        <ele>3.5</ele>
        <time>2013-04-29T13:21:48Z</time>
      </trkpt>
      <trkpt lat="50.19684" lon="1.55125">
        <ele>3.5</ele>
        <time>2013-04-29T13:22:10Z</time>
      </trkpt>
      <trkpt lat="50.19682" lon="1.55124">
        <ele>3.5</ele>
        <time>2013-04-29T13:22:21Z</time>
      </trkpt>
      <trkpt lat="50.19676" lon="1.55121">
        <ele>3.5</ele>
        <time>2013-04-29T13:22:30Z</time>
      </trkpt>
      <trkpt lat="50.19659" lon="1.55106">
        <ele>3.5</ele>
        <time>2013-04-29T13:22:47Z</time>
      </trkpt>
      <trkpt lat="50.19649" lon="1.55092">
        <ele>3.5</ele>
        <time>2013-04-29T13:23:04Z</time>
      </trkpt>
      <trkpt lat="50.19643" lon="1.55078">
        <ele>3.02</ele>
        <time>2013-04-29T13:23:19Z</time>
      </trkpt>
      <trkpt lat="50.1963" lon="1.55067">
        <ele>3.5</ele>
        <time>2013-04-29T13:23:33Z</time>
      </trkpt>
      <trkpt lat="50.19628" lon="1.55063">
        <ele>3.02</ele>
        <time>2013-04-29T13:23:36Z</time>
      </trkpt>
      <trkpt lat="50.19625" lon="1.55055">
        <ele>3.02</ele>
        <time>2013-04-29T13:23:41Z</time>
      </trkpt>
      <trkpt lat="50.19627" lon="1.5505">
        <ele>1.58</ele>
        <time>2013-04-29T13:23:56Z</time>
      </trkpt>
      <trkpt lat="50.19629" lon="1.55042">
        <ele>2.06</ele>
        <time>2013-04-29T13:24:18Z</time>
      </trkpt>
      <trkpt lat="50.19632" lon="1.55035">
        <ele>3.98</ele>
        <time>2013-04-29T13:24:24Z</time>
      </trkpt>
      <trkpt lat="50.19646" lon="1.55029">
        <ele>3.02</ele>
        <time>2013-04-29T13:24:43Z</time>
      </trkpt>
      <trkpt lat="50.19652" lon="1.55027">
        <ele>3.5</ele>
        <time>2013-04-29T13:24:56Z</time>
      </trkpt>
      <trkpt lat="50.19656" lon="1.55014">
        <ele>4.46</ele>
        <time>2013-04-29T13:25:10Z</time>
      </trkpt>
      <trkpt lat="50.19659" lon="1.55011">
        <ele>3.5</ele>
        <time>2013-04-29T13:25:15Z</time>
      </trkpt>
      <trkpt lat="50.19662" lon="1.55004">
        <ele>3.98</ele>
        <time>2013-04-29T13:25:20Z</time>
      </trkpt>
      <trkpt lat="50.19678" lon="1.55012">
        <ele>4.94</ele>
        <time>2013-04-29T13:25:34Z</time>
      </trkpt>
      <trkpt lat="50.19684" lon="1.55014">
        <ele>4.94</ele>
        <time>2013-04-29T13:25:39Z</time>
      </trkpt>
      <trkpt lat="50.19708" lon="1.55016">
        <ele>2.54</ele>
        <time>2013-04-29T13:25:58Z</time>
      </trkpt>
      <trkpt lat="50.19735" lon="1.55019">
        <ele>4.46</ele>
        <time>2013-04-29T13:26:20Z</time>
      </trkpt>
      <trkpt lat="50.19755" lon="1.55022">
        <ele>3.5</ele>
        <time>2013-04-29T13:26:36Z</time>
      </trkpt>
      <trkpt lat="50.1978" lon="1.55023">
        <ele>3.5</ele>
        <time>2013-04-29T13:26:56Z</time>
      </trkpt>
      <trkpt lat="50.19796" lon="1.55021">
        <ele>5.42</ele>
        <time>2013-04-29T13:27:09Z</time>
      </trkpt>
      <trkpt lat="50.1981" lon="1.55015">
        <ele>4.46</ele>
        <time>2013-04-29T13:27:21Z</time>
      </trkpt>
      <trkpt lat="50.1983" lon="1.55004">
        <ele>3.98</ele>
        <time>2013-04-29T13:27:38Z</time>
      </trkpt>
      <trkpt lat="50.19849" lon="1.54992">
        <ele>3.98</ele>
        <time>2013-04-29T13:27:54Z</time>
      </trkpt>
      <trkpt lat="50.19854" lon="1.54985">
        <ele>4.46</ele>
        <time>2013-04-29T13:27:59Z</time>
      </trkpt>
      <trkpt lat="50.19869" lon="1.54972">
        <ele>4.94</ele>
        <time>2013-04-29T13:28:13Z</time>
      </trkpt>
      <trkpt lat="50.19875" lon="1.54964">
        <ele>3.98</ele>
        <time>2013-04-29T13:28:18Z</time>
      </trkpt>
      <trkpt lat="50.19887" lon="1.54949">
        <ele>4.46</ele>
        <time>2013-04-29T13:28:31Z</time>
      </trkpt>
      <trkpt lat="50.19895" lon="1.5494">
        <ele>5.42</ele>
        <time>2013-04-29T13:28:38Z</time>
      </trkpt>
      <trkpt lat="50.19906" lon="1.54929">
        <ele>4.94</ele>
        <time>2013-04-29T13:28:48Z</time>
      </trkpt>
      <trkpt lat="50.19928" lon="1.54909">
        <ele>4.94</ele>
        <time>2013-04-29T13:29:06Z</time>
      </trkpt>
      <trkpt lat="50.1995" lon="1.54889">
        <ele>5.42</ele>
        <time>2013-04-29T13:29:25Z</time>
      </trkpt>
      <trkpt lat="50.19973" lon="1.5487">
        <ele>5.42</ele>
        <time>2013-04-29T13:29:44Z</time>
      </trkpt>
      <trkpt lat="50.19996" lon="1.54866">
        <ele>4.94</ele>
        <time>2013-04-29T13:30:01Z</time>
      </trkpt>
      <trkpt lat="50.20021" lon="1.54867">
        <ele>5.91</ele>
        <time>2013-04-29T13:30:20Z</time>
      </trkpt>
      <trkpt lat="50.20047" lon="1.54863">
        <ele>5.91</ele>
        <time>2013-04-29T13:30:40Z</time>
      </trkpt>
      <trkpt lat="50.2006" lon="1.54868">
        <ele>4.94</ele>
        <time>2013-04-29T13:30:55Z</time>
      </trkpt>
      <trkpt lat="50.20068" lon="1.54874">
        <ele>5.42</ele>
        <time>2013-04-29T13:31:13Z</time>
      </trkpt>
      <trkpt lat="50.20092" lon="1.54881">
        <ele>6.39</ele>
        <time>2013-04-29T13:31:32Z</time>
      </trkpt>
      <trkpt lat="50.20112" lon="1.54878">
        <ele>5.91</ele>
        <time>2013-04-29T13:31:49Z</time>
      </trkpt>
      <trkpt lat="50.20133" lon="1.54873">
        <ele>8.31</ele>
        <time>2013-04-29T13:32:09Z</time>
      </trkpt>
      <trkpt lat="50.20134" lon="1.54876">
        <ele>8.79</ele>
        <time>2013-04-29T13:32:28Z</time>
      </trkpt>
      <trkpt lat="50.20149" lon="1.54867">
        <ele>7.35</ele>
        <time>2013-04-29T13:32:43Z</time>
      </trkpt>
      <trkpt lat="50.20176" lon="1.5485">
        <ele>7.83</ele>
        <time>2013-04-29T13:33:01Z</time>
      </trkpt>
      <trkpt lat="50.20189" lon="1.5484">
        <ele>8.79</ele>
        <time>2013-04-29T13:33:15Z</time>
      </trkpt>
      <trkpt lat="50.20198" lon="1.54838">
        <ele>8.31</ele>
        <time>2013-04-29T13:33:22Z</time>
      </trkpt>
      <trkpt lat="50.20217" lon="1.54842">
        <ele>7.35</ele>
        <time>2013-04-29T13:33:38Z</time>
      </trkpt>
      <trkpt lat="50.20236" lon="1.54856">
        <ele>6.87</ele>
        <time>2013-04-29T13:33:55Z</time>
      </trkpt>
      <trkpt lat="50.20255" lon="1.54867">
        <ele>6.87</ele>
        <time>2013-04-29T13:34:12Z</time>
      </trkpt>
      <trkpt lat="50.2027" lon="1.54886">
        <ele>6.87</ele>
        <time>2013-04-29T13:34:28Z</time>
      </trkpt>
      <trkpt lat="50.20282" lon="1.54913">
        <ele>6.87</ele>
        <time>2013-04-29T13:34:45Z</time>
      </trkpt>
      <trkpt lat="50.2029" lon="1.54939">
        <ele>6.87</ele>
        <time>2013-04-29T13:35:00Z</time>
      </trkpt>
      <trkpt lat="50.20302" lon="1.54974">
        <ele>7.35</ele>
        <time>2013-04-29T13:35:21Z</time>
      </trkpt>
      <trkpt lat="50.20314" lon="1.55004">
        <ele>7.83</ele>
        <time>2013-04-29T13:35:39Z</time>
      </trkpt>
      <trkpt lat="50.20324" lon="1.5503">
        <ele>7.35</ele>
        <time>2013-04-29T13:35:56Z</time>
      </trkpt>
      <trkpt lat="50.20323" lon="1.55048">
        <ele>7.35</ele>
        <time>2013-04-29T13:36:06Z</time>
      </trkpt>
      <trkpt lat="50.20319" lon="1.55069">
        <ele>7.35</ele>
        <time>2013-04-29T13:36:19Z</time>
      </trkpt>
      <trkpt lat="50.20317" lon="1.5507">
        <ele>7.35</ele>
        <time>2013-04-29T13:36:34Z</time>
      </trkpt>
      <trkpt lat="50.20316" lon="1.55074">
        <ele>7.35</ele>
        <time>2013-04-29T13:36:39Z</time>
      </trkpt>
      <trkpt lat="50.20311" lon="1.55088">
        <ele>7.35</ele>
        <time>2013-04-29T13:36:51Z</time>
      </trkpt>
      <trkpt lat="50.20309" lon="1.55098">
        <ele>7.35</ele>
        <time>2013-04-29T13:37:11Z</time>
      </trkpt>
      <trkpt lat="50.20305" lon="1.55114">
        <ele>7.35</ele>
        <time>2013-04-29T13:37:22Z</time>
      </trkpt>
      <trkpt lat="50.20302" lon="1.5512">
        <ele>6.39</ele>
        <time>2013-04-29T13:37:26Z</time>
      </trkpt>
      <trkpt lat="50.20302" lon="1.55123">
        <ele>6.39</ele>
        <time>2013-04-29T13:37:28Z</time>
      </trkpt>
      <trkpt lat="50.20301" lon="1.55126">
        <ele>6.39</ele>
        <time>2013-04-29T13:37:31Z</time>
      </trkpt>
      <trkpt lat="50.20298" lon="1.55142">
        <ele>6.39</ele>
        <time>2013-04-29T13:37:44Z</time>
      </trkpt>
      <trkpt lat="50.20297" lon="1.55145">
        <ele>6.39</ele>
        <time>2013-04-29T13:38:05Z</time>
      </trkpt>
      <trkpt lat="50.20296" lon="1.55142">
        <ele>7.35</ele>
        <time>2013-04-29T13:38:21Z</time>
      </trkpt>
      <trkpt lat="50.20296" lon="1.55142">
        <ele>5.91</ele>
        <time>2013-04-29T13:38:46Z</time>
      </trkpt>
      <trkpt lat="50.20298" lon="1.55139">
        <ele>5.91</ele>
        <time>2013-04-29T13:39:02Z</time>
      </trkpt>
      <trkpt lat="50.20305" lon="1.55141">
        <ele>6.39</ele>
        <time>2013-04-29T13:39:14Z</time>
      </trkpt>
      <trkpt lat="50.20322" lon="1.55153">
        <ele>5.42</ele>
        <time>2013-04-29T13:39:30Z</time>
      </trkpt>
      <trkpt lat="50.20327" lon="1.55162">
        <ele>5.91</ele>
        <time>2013-04-29T13:39:43Z</time>
      </trkpt>
      <trkpt lat="50.20326" lon="1.5516">
        <ele>5.91</ele>
        <time>2013-04-29T13:39:51Z</time>
      </trkpt>
      <trkpt lat="50.20328" lon="1.55154">
        <ele>4.94</ele>
        <time>2013-04-29T13:39:55Z</time>
      </trkpt>
      <trkpt lat="50.20338" lon="1.55128">
        <ele>6.39</ele>
        <time>2013-04-29T13:40:13Z</time>
      </trkpt>
      <trkpt lat="50.20347" lon="1.55117">
        <ele>6.87</ele>
        <time>2013-04-29T13:40:30Z</time>
      </trkpt>
      <trkpt lat="50.20362" lon="1.55077">
        <ele>7.83</ele>
        <time>2013-04-29T13:40:55Z</time>
      </trkpt>
      <trkpt lat="50.20369" lon="1.55069">
        <ele>8.79</ele>
        <time>2013-04-29T13:41:05Z</time>
      </trkpt>
      <trkpt lat="50.20374" lon="1.55078">
        <ele>8.79</ele>
        <time>2013-04-29T13:41:09Z</time>
      </trkpt>
      <trkpt lat="50.20385" lon="1.55091">
        <ele>7.83</ele>
        <time>2013-04-29T13:41:25Z</time>
      </trkpt>
      <trkpt lat="50.20403" lon="1.5511">
        <ele>7.83</ele>
        <time>2013-04-29T13:41:43Z</time>
      </trkpt>
      <trkpt lat="50.20415" lon="1.55123">
        <ele>8.31</ele>
        <time>2013-04-29T13:41:58Z</time>
      </trkpt>
      <trkpt lat="50.20431" lon="1.55143">
        <ele>8.31</ele>
        <time>2013-04-29T13:42:15Z</time>
      </trkpt>
      <trkpt lat="50.20448" lon="1.55165">
        <ele>8.31</ele>
        <time>2013-04-29T13:42:33Z</time>
      </trkpt>
      <trkpt lat="50.20463" lon="1.55189">
        <ele>8.31</ele>
        <time>2013-04-29T13:42:51Z</time>
      </trkpt>
      <trkpt lat="50.20478" lon="1.55213">
        <ele>8.31</ele>
        <time>2013-04-29T13:43:09Z</time>
      </trkpt>
      <trkpt lat="50.205" lon="1.55234">
        <ele>7.83</ele>
        <time>2013-04-29T13:43:29Z</time>
      </trkpt>
      <trkpt lat="50.2052" lon="1.55243">
        <ele>7.83</ele>
        <time>2013-04-29T13:43:47Z</time>
      </trkpt>
      <trkpt lat="50.20539" lon="1.5525">
        <ele>7.35</ele>
        <time>2013-04-29T13:44:04Z</time>
      </trkpt>
      <trkpt lat="50.20561" lon="1.55261">
        <ele>7.83</ele>
        <time>2013-04-29T13:44:23Z</time>
      </trkpt>
      <trkpt lat="50.20579" lon="1.55266">
        <ele>8.31</ele>
        <time>2013-04-29T13:44:41Z</time>
      </trkpt>
      <trkpt lat="50.20584" lon="1.55271">
        <ele>7.83</ele>
        <time>2013-04-29T13:44:59Z</time>
      </trkpt>
      <trkpt lat="50.20594" lon="1.55276">
        <ele>8.79</ele>
        <time>2013-04-29T13:45:13Z</time>
      </trkpt>
      <trkpt lat="50.20609" lon="1.5528">
        <ele>7.83</ele>
        <time>2013-04-29T13:45:30Z</time>
      </trkpt>
      <trkpt lat="50.20619" lon="1.55286">
        <ele>8.79</ele>
        <time>2013-04-29T13:45:51Z</time>
      </trkpt>
      <trkpt lat="50.20622" lon="1.55286">
        <ele>9.27</ele>
        <time>2013-04-29T13:46:03Z</time>
      </trkpt>
      <trkpt lat="50.20639" lon="1.5529">
        <ele>7.83</ele>
        <time>2013-04-29T13:46:19Z</time>
      </trkpt>
      <trkpt lat="50.20658" lon="1.55289">
        <ele>8.31</ele>
        <time>2013-04-29T13:46:35Z</time>
      </trkpt>
      <trkpt lat="50.20682" lon="1.55284">
        <ele>8.31</ele>
        <time>2013-04-29T13:46:55Z</time>
      </trkpt>
      <trkpt lat="50.20704" lon="1.55282">
        <ele>8.31</ele>
        <time>2013-04-29T13:47:13Z</time>
      </trkpt>
      <trkpt lat="50.20719" lon="1.55278">
        <ele>9.27</ele>
        <time>2013-04-29T13:47:28Z</time>
      </trkpt>
      <trkpt lat="50.20721" lon="1.55279">
        <ele>7.83</ele>
        <time>2013-04-29T13:47:39Z</time>
      </trkpt>
      <trkpt lat="50.2073" lon="1.55276">
        <ele>8.31</ele>
        <time>2013-04-29T13:47:54Z</time>
      </trkpt>
      <trkpt lat="50.20738" lon="1.55271">
        <ele>7.83</ele>
        <time>2013-04-29T13:48:07Z</time>
      </trkpt>
      <trkpt lat="50.20752" lon="1.55249">
        <ele>8.79</ele>
        <time>2013-04-29T13:48:24Z</time>
      </trkpt>
      <trkpt lat="50.20763" lon="1.55221">
        <ele>9.27</ele>
        <time>2013-04-29T13:48:41Z</time>
      </trkpt>
      <trkpt lat="50.20764" lon="1.55215">
        <ele>7.83</ele>
        <time>2013-04-29T13:48:46Z</time>
      </trkpt>
      <trkpt lat="50.20774" lon="1.55187">
        <ele>8.79</ele>
        <time>2013-04-29T13:49:03Z</time>
      </trkpt>
      <trkpt lat="50.20787" lon="1.5516">
        <ele>9.27</ele>
        <time>2013-04-29T13:49:21Z</time>
      </trkpt>
      <trkpt lat="50.20804" lon="1.55139">
        <ele>8.31</ele>
        <time>2013-04-29T13:49:39Z</time>
      </trkpt>
      <trkpt lat="50.20824" lon="1.55145">
        <ele>7.83</ele>
        <time>2013-04-29T13:49:55Z</time>
      </trkpt>
      <trkpt lat="50.20842" lon="1.55153">
        <ele>8.79</ele>
        <time>2013-04-29T13:50:11Z</time>
      </trkpt>
      <trkpt lat="50.20861" lon="1.55164">
        <ele>8.31</ele>
        <time>2013-04-29T13:50:27Z</time>
      </trkpt>
      <trkpt lat="50.2088" lon="1.55176">
        <ele>7.83</ele>
        <time>2013-04-29T13:50:44Z</time>
      </trkpt>
      <trkpt lat="50.20899" lon="1.55186">
        <ele>8.31</ele>
        <time>2013-04-29T13:51:01Z</time>
      </trkpt>
      <trkpt lat="50.20921" lon="1.55194">
        <ele>8.31</ele>
        <time>2013-04-29T13:51:20Z</time>
      </trkpt>
      <trkpt lat="50.2095" lon="1.55197">
        <ele>7.83</ele>
        <time>2013-04-29T13:51:42Z</time>
      </trkpt>
      <trkpt lat="50.20972" lon="1.55195">
        <ele>8.31</ele>
        <time>2013-04-29T13:52:00Z</time>
      </trkpt>
      <trkpt lat="50.20993" lon="1.55194">
        <ele>8.31</ele>
        <time>2013-04-29T13:52:17Z</time>
      </trkpt>
      <trkpt lat="50.21017" lon="1.55194">
        <ele>8.31</ele>
        <time>2013-04-29T13:52:37Z</time>
      </trkpt>
      <trkpt lat="50.21042" lon="1.55195">
        <ele>8.79</ele>
        <time>2013-04-29T13:52:57Z</time>
      </trkpt>
      <trkpt lat="50.21048" lon="1.55197">
        <ele>6.87</ele>
        <time>2013-04-29T13:53:02Z</time>
      </trkpt>
      <trkpt lat="50.21074" lon="1.55205">
        <ele>8.79</ele>
        <time>2013-04-29T13:53:22Z</time>
      </trkpt>
      <trkpt lat="50.21095" lon="1.55208">
        <ele>8.31</ele>
        <time>2013-04-29T13:53:39Z</time>
      </trkpt>
      <trkpt lat="50.21117" lon="1.55209">
        <ele>6.87</ele>
        <time>2013-04-29T13:53:57Z</time>
      </trkpt>
      <trkpt lat="50.21138" lon="1.55206">
        <ele>7.35</ele>
        <time>2013-04-29T13:54:14Z</time>
      </trkpt>
      <trkpt lat="50.21151" lon="1.55213">
        <ele>6.87</ele>
        <time>2013-04-29T13:54:26Z</time>
      </trkpt>
      <trkpt lat="50.21141" lon="1.55209">
        <ele>7.35</ele>
        <time>2013-04-29T13:54:42Z</time>
      </trkpt>
      <trkpt lat="50.2116" lon="1.55229">
        <ele>6.39</ele>
        <time>2013-04-29T13:54:59Z</time>
      </trkpt>
      <trkpt lat="50.21163" lon="1.55258">
        <ele>6.87</ele>
        <time>2013-04-29T13:55:15Z</time>
      </trkpt>
      <trkpt lat="50.21167" lon="1.55281">
        <ele>6.87</ele>
        <time>2013-04-29T13:55:29Z</time>
      </trkpt>
      <trkpt lat="50.2117" lon="1.55288">
        <ele>6.87</ele>
        <time>2013-04-29T13:55:33Z</time>
      </trkpt>
      <trkpt lat="50.21182" lon="1.55318">
        <ele>6.87</ele>
        <time>2013-04-29T13:55:52Z</time>
      </trkpt>
      <trkpt lat="50.21201" lon="1.55336">
        <ele>6.39</ele>
        <time>2013-04-29T13:56:10Z</time>
      </trkpt>
      <trkpt lat="50.21224" lon="1.55346">
        <ele>6.87</ele>
        <time>2013-04-29T13:56:29Z</time>
      </trkpt>
      <trkpt lat="50.21245" lon="1.55351">
        <ele>6.39</ele>
        <time>2013-04-29T13:56:47Z</time>
      </trkpt>
      <trkpt lat="50.21264" lon="1.55355">
        <ele>6.87</ele>
        <time>2013-04-29T13:57:04Z</time>
      </trkpt>
      <trkpt lat="50.21288" lon="1.55367">
        <ele>7.83</ele>
        <time>2013-04-29T13:57:23Z</time>
      </trkpt>
      <trkpt lat="50.21296" lon="1.55388">
        <ele>8.31</ele>
        <time>2013-04-29T13:57:37Z</time>
      </trkpt>
      <trkpt lat="50.21297" lon="1.55416">
        <ele>8.31</ele>
        <time>2013-04-29T13:57:52Z</time>
      </trkpt>
      <trkpt lat="50.21298" lon="1.55451">
        <ele>8.79</ele>
        <time>2013-04-29T13:58:10Z</time>
      </trkpt>
      <trkpt lat="50.21298" lon="1.5548">
        <ele>7.83</ele>
        <time>2013-04-29T13:58:25Z</time>
      </trkpt>
      <trkpt lat="50.213" lon="1.55482">
        <ele>7.83</ele>
        <time>2013-04-29T13:58:27Z</time>
      </trkpt>
      <trkpt lat="50.213" lon="1.55491">
        <ele>7.83</ele>
        <time>2013-04-29T13:58:32Z</time>
      </trkpt>
      <trkpt lat="50.21308" lon="1.55523">
        <ele>8.31</ele>
        <time>2013-04-29T13:58:51Z</time>
      </trkpt>
      <trkpt lat="50.2131" lon="1.55542">
        <ele>7.83</ele>
        <time>2013-04-29T13:59:03Z</time>
      </trkpt>
      <trkpt lat="50.21316" lon="1.55571">
        <ele>7.83</ele>
        <time>2013-04-29T13:59:19Z</time>
      </trkpt>
      <trkpt lat="50.2132" lon="1.55599">
        <ele>7.83</ele>
        <time>2013-04-29T13:59:34Z</time>
      </trkpt>
      <trkpt lat="50.21327" lon="1.5563">
        <ele>7.35</ele>
        <time>2013-04-29T13:59:52Z</time>
      </trkpt>
      <trkpt lat="50.21335" lon="1.55661">
        <ele>7.83</ele>
        <time>2013-04-29T14:00:09Z</time>
      </trkpt>
      <trkpt lat="50.21342" lon="1.55691">
        <ele>8.31</ele>
        <time>2013-04-29T14:00:26Z</time>
      </trkpt>
      <trkpt lat="50.21347" lon="1.5572">
        <ele>7.83</ele>
        <time>2013-04-29T14:00:41Z</time>
      </trkpt>
      <trkpt lat="50.21348" lon="1.55747">
        <ele>8.79</ele>
        <time>2013-04-29T14:00:56Z</time>
      </trkpt>
      <trkpt lat="50.21345" lon="1.55775">
        <ele>8.31</ele>
        <time>2013-04-29T14:01:11Z</time>
      </trkpt>
      <trkpt lat="50.21341" lon="1.55809">
        <ele>8.31</ele>
        <time>2013-04-29T14:01:29Z</time>
      </trkpt>
      <trkpt lat="50.21338" lon="1.55841">
        <ele>8.31</ele>
        <time>2013-04-29T14:01:46Z</time>
      </trkpt>
      <trkpt lat="50.21334" lon="1.55878">
        <ele>8.31</ele>
        <time>2013-04-29T14:02:06Z</time>
      </trkpt>
      <trkpt lat="50.2133" lon="1.55916">
        <ele>7.83</ele>
        <time>2013-04-29T14:02:26Z</time>
      </trkpt>
      <trkpt lat="50.2133" lon="1.5592">
        <ele>7.83</ele>
        <time>2013-04-29T14:02:28Z</time>
      </trkpt>
      <trkpt lat="50.21328" lon="1.55933">
        <ele>7.83</ele>
        <time>2013-04-29T14:02:36Z</time>
      </trkpt>
      <trkpt lat="50.21325" lon="1.55969">
        <ele>7.83</ele>
        <time>2013-04-29T14:02:55Z</time>
      </trkpt>
      <trkpt lat="50.21323" lon="1.5598">
        <ele>7.83</ele>
        <time>2013-04-29T14:03:01Z</time>
      </trkpt>
      <trkpt lat="50.2132" lon="1.56002">
        <ele>6.87</ele>
        <time>2013-04-29T14:03:14Z</time>
      </trkpt>
      <trkpt lat="50.21317" lon="1.56011">
        <ele>6.87</ele>
        <time>2013-04-29T14:03:19Z</time>
      </trkpt>
      <trkpt lat="50.21319" lon="1.56024">
        <ele>7.35</ele>
        <time>2013-04-29T14:03:32Z</time>
      </trkpt>
      <trkpt lat="50.21321" lon="1.56028">
        <ele>7.35</ele>
        <time>2013-04-29T14:03:38Z</time>
      </trkpt>
      <trkpt lat="50.21321" lon="1.56045">
        <ele>7.35</ele>
        <time>2013-04-29T14:03:53Z</time>
      </trkpt>
      <trkpt lat="50.2132" lon="1.56046">
        <ele>7.35</ele>
        <time>2013-04-29T14:04:02Z</time>
      </trkpt>
      <trkpt lat="50.21318" lon="1.56052">
        <ele>7.35</ele>
        <time>2013-04-29T14:04:06Z</time>
      </trkpt>
      <trkpt lat="50.21322" lon="1.56082">
        <ele>6.87</ele>
        <time>2013-04-29T14:04:22Z</time>
      </trkpt>
      <trkpt lat="50.21328" lon="1.56095">
        <ele>6.87</ele>
        <time>2013-04-29T14:04:30Z</time>
      </trkpt>
      <trkpt lat="50.21337" lon="1.56125">
        <ele>6.87</ele>
        <time>2013-04-29T14:04:47Z</time>
      </trkpt>
      <trkpt lat="50.21346" lon="1.56156">
        <ele>6.87</ele>
        <time>2013-04-29T14:05:04Z</time>
      </trkpt>
      <trkpt lat="50.21353" lon="1.56169">
        <ele>7.35</ele>
        <time>2013-04-29T14:05:14Z</time>
      </trkpt>
      <trkpt lat="50.2136" lon="1.56187">
        <ele>7.83</ele>
        <time>2013-04-29T14:05:31Z</time>
      </trkpt>
      <trkpt lat="50.21366" lon="1.56203">
        <ele>7.83</ele>
        <time>2013-04-29T14:05:44Z</time>
      </trkpt>
      <trkpt lat="50.21374" lon="1.56232">
        <ele>7.83</ele>
        <time>2013-04-29T14:06:01Z</time>
      </trkpt>
      <trkpt lat="50.21383" lon="1.56263">
        <ele>7.83</ele>
        <time>2013-04-29T14:06:19Z</time>
      </trkpt>
      <trkpt lat="50.2139" lon="1.56288">
        <ele>7.83</ele>
        <time>2013-04-29T14:06:34Z</time>
      </trkpt>
      <trkpt lat="50.21393" lon="1.56318">
        <ele>7.83</ele>
        <time>2013-04-29T14:06:50Z</time>
      </trkpt>
      <trkpt lat="50.21394" lon="1.56327">
        <ele>7.35</ele>
        <time>2013-04-29T14:06:55Z</time>
      </trkpt>
      <trkpt lat="50.21399" lon="1.56346">
        <ele>7.83</ele>
        <time>2013-04-29T14:07:08Z</time>
      </trkpt>
      <trkpt lat="50.21402" lon="1.56354">
        <ele>7.35</ele>
        <time>2013-04-29T14:07:13Z</time>
      </trkpt>
      <trkpt lat="50.21407" lon="1.56374">
        <ele>7.83</ele>
        <time>2013-04-29T14:07:28Z</time>
      </trkpt>
      <trkpt lat="50.2142" lon="1.56395">
        <ele>8.31</ele>
        <time>2013-04-29T14:07:45Z</time>
      </trkpt>
      <trkpt lat="50.21425" lon="1.56391">
        <ele>8.31</ele>
        <time>2013-04-29T14:08:05Z</time>
      </trkpt>
      <trkpt lat="50.21435" lon="1.56401">
        <ele>8.79</ele>
        <time>2013-04-29T14:08:19Z</time>
      </trkpt>
      <trkpt lat="50.21442" lon="1.56409">
        <ele>8.79</ele>
        <time>2013-04-29T14:08:31Z</time>
      </trkpt>
      <trkpt lat="50.21442" lon="1.5641">
        <ele>9.27</ele>
        <time>2013-04-29T14:08:47Z</time>
      </trkpt>
      <trkpt lat="50.2144" lon="1.56413">
        <ele>9.27</ele>
        <time>2013-04-29T14:08:59Z</time>
      </trkpt>
      <trkpt lat="50.21431" lon="1.56423">
        <ele>8.79</ele>
        <time>2013-04-29T14:09:15Z</time>
      </trkpt>
      <trkpt lat="50.2143" lon="1.56433">
        <ele>8.79</ele>
        <time>2013-04-29T14:09:31Z</time>
      </trkpt>
      <trkpt lat="50.21425" lon="1.56437">
        <ele>8.31</ele>
        <time>2013-04-29T14:09:49Z</time>
      </trkpt>
      <trkpt lat="50.2142" lon="1.5645">
        <ele>8.31</ele>
        <time>2013-04-29T14:10:01Z</time>
      </trkpt>
      <trkpt lat="50.21422" lon="1.56459">
        <ele>7.83</ele>
        <time>2013-04-29T14:10:15Z</time>
      </trkpt>
      <trkpt lat="50.21429" lon="1.56487">
        <ele>7.83</ele>
        <time>2013-04-29T14:10:30Z</time>
      </trkpt>
      <trkpt lat="50.21429" lon="1.56489">
        <ele>7.35</ele>
        <time>2013-04-29T14:10:31Z</time>
      </trkpt>
      <trkpt lat="50.21436" lon="1.56505">
        <ele>7.35</ele>
        <time>2013-04-29T14:10:42Z</time>
      </trkpt>
      <trkpt lat="50.21447" lon="1.56535">
        <ele>7.35</ele>
        <time>2013-04-29T14:11:01Z</time>
      </trkpt>
      <trkpt lat="50.21454" lon="1.56557">
        <ele>7.83</ele>
        <time>2013-04-29T14:11:14Z</time>
      </trkpt>
      <trkpt lat="50.21462" lon="1.56583">
        <ele>7.83</ele>
        <time>2013-04-29T14:11:31Z</time>
      </trkpt>
      <trkpt lat="50.21466" lon="1.56588">
        <ele>7.83</ele>
        <time>2013-04-29T14:11:35Z</time>
      </trkpt>
      <trkpt lat="50.21473" lon="1.56618">
        <ele>7.83</ele>
        <time>2013-04-29T14:11:53Z</time>
      </trkpt>
      <trkpt lat="50.21475" lon="1.56626">
        <ele>7.83</ele>
        <time>2013-04-29T14:11:58Z</time>
      </trkpt>
      <trkpt lat="50.21479" lon="1.56636">
        <ele>7.35</ele>
        <time>2013-04-29T14:12:05Z</time>
      </trkpt>
      <trkpt lat="50.21483" lon="1.56643">
        <ele>8.31</ele>
        <time>2013-04-29T14:12:12Z</time>
      </trkpt>
      <trkpt lat="50.21487" lon="1.56666">
        <ele>8.31</ele>
        <time>2013-04-29T14:12:29Z</time>
      </trkpt>
      <trkpt lat="50.2149" lon="1.56666">
        <ele>7.83</ele>
        <time>2013-04-29T14:12:44Z</time>
      </trkpt>
      <trkpt lat="50.21493" lon="1.56658">
        <ele>8.31</ele>
        <time>2013-04-29T14:12:57Z</time>
      </trkpt>
      <trkpt lat="50.21496" lon="1.56653">
        <ele>8.31</ele>
        <time>2013-04-29T14:13:07Z</time>
      </trkpt>
      <trkpt lat="50.215" lon="1.56648">
        <ele>7.83</ele>
        <time>2013-04-29T14:13:12Z</time>
      </trkpt>
      <trkpt lat="50.21518" lon="1.56638">
        <ele>8.79</ele>
        <time>2013-04-29T14:13:31Z</time>
      </trkpt>
      <trkpt lat="50.21518" lon="1.56637">
        <ele>8.79</ele>
        <time>2013-04-29T14:13:32Z</time>
      </trkpt>
      <trkpt lat="50.21537" lon="1.56631">
        <ele>7.35</ele>
        <time>2013-04-29T14:13:50Z</time>
      </trkpt>
      <trkpt lat="50.21538" lon="1.56625">
        <ele>8.79</ele>
        <time>2013-04-29T14:14:05Z</time>
      </trkpt>
      <trkpt lat="50.21547" lon="1.5662">
        <ele>8.79</ele>
        <time>2013-04-29T14:14:17Z</time>
      </trkpt>
      <trkpt lat="50.21561" lon="1.56612">
        <ele>8.79</ele>
        <time>2013-04-29T14:14:34Z</time>
      </trkpt>
      <trkpt lat="50.21561" lon="1.56609">
        <ele>9.27</ele>
        <time>2013-04-29T14:14:36Z</time>
      </trkpt>
      <trkpt lat="50.21572" lon="1.56586">
        <ele>9.27</ele>
        <time>2013-04-29T14:14:53Z</time>
      </trkpt>
      <trkpt lat="50.21582" lon="1.56573">
        <ele>8.79</ele>
        <time>2013-04-29T14:15:07Z</time>
      </trkpt>
      <trkpt lat="50.21586" lon="1.56575">
        <ele>8.79</ele>
        <time>2013-04-29T14:15:20Z</time>
      </trkpt>
      <trkpt lat="50.21596" lon="1.56565">
        <ele>8.31</ele>
        <time>2013-04-29T14:15:34Z</time>
      </trkpt>
      <trkpt lat="50.21601" lon="1.56562">
        <ele>8.31</ele>
        <time>2013-04-29T14:15:53Z</time>
      </trkpt>
      <trkpt lat="50.21606" lon="1.5656">
        <ele>8.79</ele>
        <time>2013-04-29T14:16:06Z</time>
      </trkpt>
      <trkpt lat="50.2161" lon="1.56557">
        <ele>8.31</ele>
        <time>2013-04-29T14:16:11Z</time>
      </trkpt>
      <trkpt lat="50.21629" lon="1.56543">
        <ele>8.31</ele>
        <time>2013-04-29T14:16:28Z</time>
      </trkpt>
      <trkpt lat="50.21649" lon="1.5653">
        <ele>7.83</ele>
        <time>2013-04-29T14:16:47Z</time>
      </trkpt>
      <trkpt lat="50.21667" lon="1.56519">
        <ele>7.83</ele>
        <time>2013-04-29T14:17:05Z</time>
      </trkpt>
      <trkpt lat="50.21669" lon="1.56519">
        <ele>7.83</ele>
        <time>2013-04-29T14:17:08Z</time>
      </trkpt>
      <trkpt lat="50.21682" lon="1.56528">
        <ele>8.31</ele>
        <time>2013-04-29T14:17:25Z</time>
      </trkpt>
      <trkpt lat="50.21685" lon="1.56527">
        <ele>8.31</ele>
        <time>2013-04-29T14:17:28Z</time>
      </trkpt>
      <trkpt lat="50.21688" lon="1.56523">
        <ele>8.31</ele>
        <time>2013-04-29T14:17:32Z</time>
      </trkpt>
      <trkpt lat="50.21693" lon="1.5652">
        <ele>8.31</ele>
        <time>2013-04-29T14:17:46Z</time>
      </trkpt>
      <trkpt lat="50.21688" lon="1.56519">
        <ele>9.75</ele>
        <time>2013-04-29T14:18:02Z</time>
      </trkpt>
      <trkpt lat="50.21687" lon="1.56516">
        <ele>10.23</ele>
        <time>2013-04-29T14:18:18Z</time>
      </trkpt>
      <trkpt lat="50.21686" lon="1.56511">
        <ele>10.23</ele>
        <time>2013-04-29T14:18:27Z</time>
      </trkpt>
      <trkpt lat="50.21684" lon="1.56505">
        <ele>7.83</ele>
        <time>2013-04-29T14:18:31Z</time>
      </trkpt>
      <trkpt lat="50.21682" lon="1.56499">
        <ele>8.79</ele>
        <time>2013-04-29T14:18:35Z</time>
      </trkpt>
      <trkpt lat="50.21669" lon="1.56486">
        <ele>8.31</ele>
        <time>2013-04-29T14:18:49Z</time>
      </trkpt>
      <trkpt lat="50.21664" lon="1.56473">
        <ele>9.27</ele>
        <time>2013-04-29T14:19:03Z</time>
      </trkpt>
      <trkpt lat="50.21663" lon="1.5647">
        <ele>9.27</ele>
        <time>2013-04-29T14:19:18Z</time>
      </trkpt>
      <trkpt lat="50.21665" lon="1.56476">
        <ele>9.27</ele>
        <time>2013-04-29T14:19:23Z</time>
      </trkpt>
      <trkpt lat="50.21667" lon="1.56481">
        <ele>8.79</ele>
        <time>2013-04-29T14:19:27Z</time>
      </trkpt>
      <trkpt lat="50.21677" lon="1.56481">
        <ele>8.79</ele>
        <time>2013-04-29T14:19:40Z</time>
      </trkpt>
      <trkpt lat="50.21676" lon="1.56466">
        <ele>8.31</ele>
        <time>2013-04-29T14:19:49Z</time>
      </trkpt>
      <trkpt lat="50.21674" lon="1.5644">
        <ele>10.23</ele>
        <time>2013-04-29T14:20:05Z</time>
      </trkpt>
      <trkpt lat="50.21669" lon="1.56411">
        <ele>10.71</ele>
        <time>2013-04-29T14:20:23Z</time>
      </trkpt>
      <trkpt lat="50.21669" lon="1.56406">
        <ele>10.71</ele>
        <time>2013-04-29T14:20:26Z</time>
      </trkpt>
      <trkpt lat="50.21667" lon="1.56401">
        <ele>10.71</ele>
        <time>2013-04-29T14:20:30Z</time>
      </trkpt>
      <trkpt lat="50.21664" lon="1.56381">
        <ele>10.71</ele>
        <time>2013-04-29T14:20:47Z</time>
      </trkpt>
      <trkpt lat="50.21664" lon="1.56376">
        <ele>8.31</ele>
        <time>2013-04-29T14:21:00Z</time>
      </trkpt>
      <trkpt lat="50.21662" lon="1.5637">
        <ele>10.23</ele>
        <time>2013-04-29T14:21:08Z</time>
      </trkpt>
      <trkpt lat="50.2166" lon="1.56355">
        <ele>10.23</ele>
        <time>2013-04-29T14:21:20Z</time>
      </trkpt>
      <trkpt lat="50.21661" lon="1.56351">
        <ele>10.23</ele>
        <time>2013-04-29T14:21:24Z</time>
      </trkpt>
      <trkpt lat="50.21657" lon="1.56323">
        <ele>10.23</ele>
        <time>2013-04-29T14:21:41Z</time>
      </trkpt>
      <trkpt lat="50.21657" lon="1.56311">
        <ele>10.23</ele>
        <time>2013-04-29T14:21:48Z</time>
      </trkpt>
      <trkpt lat="50.21654" lon="1.56292">
        <ele>10.23</ele>
        <time>2013-04-29T14:22:06Z</time>
      </trkpt>
      <trkpt lat="50.21655" lon="1.5629">
        <ele>8.79</ele>
        <time>2013-04-29T14:22:28Z</time>
      </trkpt>
      <trkpt lat="50.21654" lon="1.56287">
        <ele>8.31</ele>
        <time>2013-04-29T14:22:43Z</time>
      </trkpt>
      <trkpt lat="50.21653" lon="1.5628">
        <ele>10.71</ele>
        <time>2013-04-29T14:22:48Z</time>
      </trkpt>
      <trkpt lat="50.21651" lon="1.56255">
        <ele>11.19</ele>
        <time>2013-04-29T14:23:03Z</time>
      </trkpt>
      <trkpt lat="50.21649" lon="1.5623">
        <ele>10.71</ele>
        <time>2013-04-29T14:23:18Z</time>
      </trkpt>
      <trkpt lat="50.21647" lon="1.56201">
        <ele>9.75</ele>
        <time>2013-04-29T14:23:35Z</time>
      </trkpt>
      <trkpt lat="50.21646" lon="1.56193">
        <ele>10.23</ele>
        <time>2013-04-29T14:23:40Z</time>
      </trkpt>
      <trkpt lat="50.21644" lon="1.56188">
        <ele>10.23</ele>
        <time>2013-04-29T14:23:44Z</time>
      </trkpt>
      <trkpt lat="50.21642" lon="1.56175">
        <ele>10.23</ele>
        <time>2013-04-29T14:23:52Z</time>
      </trkpt>
      <trkpt lat="50.2164" lon="1.5615">
        <ele>9.75</ele>
        <time>2013-04-29T14:24:07Z</time>
      </trkpt>
      <trkpt lat="50.21637" lon="1.56127">
        <ele>9.75</ele>
        <time>2013-04-29T14:24:21Z</time>
      </trkpt>
      <trkpt lat="50.21635" lon="1.56101">
        <ele>9.75</ele>
        <time>2013-04-29T14:24:37Z</time>
      </trkpt>
      <trkpt lat="50.21634" lon="1.56073">
        <ele>10.23</ele>
        <time>2013-04-29T14:24:53Z</time>
      </trkpt>
      <trkpt lat="50.21632" lon="1.56047">
        <ele>10.23</ele>
        <time>2013-04-29T14:25:08Z</time>
      </trkpt>
      <trkpt lat="50.21631" lon="1.56023">
        <ele>9.75</ele>
        <time>2013-04-29T14:25:23Z</time>
      </trkpt>
      <trkpt lat="50.21629" lon="1.56">
        <ele>9.75</ele>
        <time>2013-04-29T14:25:37Z</time>
      </trkpt>
      <trkpt lat="50.21629" lon="1.55998">
        <ele>10.23</ele>
        <time>2013-04-29T14:25:39Z</time>
      </trkpt>
      <trkpt lat="50.21629" lon="1.55995">
        <ele>9.75</ele>
        <time>2013-04-29T14:25:41Z</time>
      </trkpt>
      <trkpt lat="50.21627" lon="1.5597">
        <ele>9.75</ele>
        <time>2013-04-29T14:25:57Z</time>
      </trkpt>
      <trkpt lat="50.21626" lon="1.55968">
        <ele>9.27</ele>
        <time>2013-04-29T14:25:58Z</time>
      </trkpt>
      <trkpt lat="50.21625" lon="1.55944">
        <ele>9.75</ele>
        <time>2013-04-29T14:26:13Z</time>
      </trkpt>
      <trkpt lat="50.21623" lon="1.55918">
        <ele>9.27</ele>
        <time>2013-04-29T14:26:28Z</time>
      </trkpt>
      <trkpt lat="50.2162" lon="1.55891">
        <ele>8.79</ele>
        <time>2013-04-29T14:26:44Z</time>
      </trkpt>
      <trkpt lat="50.21619" lon="1.55888">
        <ele>8.79</ele>
        <time>2013-04-29T14:26:46Z</time>
      </trkpt>
      <trkpt lat="50.21616" lon="1.55861">
        <ele>8.79</ele>
        <time>2013-04-29T14:27:03Z</time>
      </trkpt>
      <trkpt lat="50.21614" lon="1.55849">
        <ele>8.79</ele>
        <time>2013-04-29T14:27:10Z</time>
      </trkpt>
      <trkpt lat="50.21614" lon="1.55841">
        <ele>8.31</ele>
        <time>2013-04-29T14:27:15Z</time>
      </trkpt>
      <trkpt lat="50.21618" lon="1.55828">
        <ele>7.83</ele>
        <time>2013-04-29T14:27:23Z</time>
      </trkpt>
      <trkpt lat="50.21617" lon="1.55819">
        <ele>8.31</ele>
        <time>2013-04-29T14:27:29Z</time>
      </trkpt>
      <trkpt lat="50.21615" lon="1.55807">
        <ele>8.79</ele>
        <time>2013-04-29T14:27:37Z</time>
      </trkpt>
      <trkpt lat="50.21609" lon="1.55795">
        <ele>8.79</ele>
        <time>2013-04-29T14:27:51Z</time>
      </trkpt>
      <trkpt lat="50.21609" lon="1.55792">
        <ele>8.79</ele>
        <time>2013-04-29T14:27:58Z</time>
      </trkpt>
      <trkpt lat="50.21605" lon="1.55764">
        <ele>8.79</ele>
        <time>2013-04-29T14:28:15Z</time>
      </trkpt>
      <trkpt lat="50.21603" lon="1.55755">
        <ele>9.27</ele>
        <time>2013-04-29T14:28:22Z</time>
      </trkpt>
      <trkpt lat="50.21599" lon="1.55725">
        <ele>9.27</ele>
        <time>2013-04-29T14:28:41Z</time>
      </trkpt>
      <trkpt lat="50.21594" lon="1.55702">
        <ele>10.23</ele>
        <time>2013-04-29T14:28:57Z</time>
      </trkpt>
      <trkpt lat="50.21586" lon="1.55683">
        <ele>8.79</ele>
        <time>2013-04-29T14:29:13Z</time>
      </trkpt>
      <trkpt lat="50.21579" lon="1.55678">
        <ele>8.79</ele>
        <time>2013-04-29T14:29:22Z</time>
      </trkpt>
      <trkpt lat="50.21575" lon="1.55653">
        <ele>8.79</ele>
        <time>2013-04-29T14:29:36Z</time>
      </trkpt>
      <trkpt lat="50.21576" lon="1.55631">
        <ele>9.27</ele>
        <time>2013-04-29T14:29:52Z</time>
      </trkpt>
      <trkpt lat="50.21575" lon="1.55624">
        <ele>9.27</ele>
        <time>2013-04-29T14:29:56Z</time>
      </trkpt>
      <trkpt lat="50.21568" lon="1.55607">
        <ele>8.79</ele>
        <time>2013-04-29T14:30:10Z</time>
      </trkpt>
      <trkpt lat="50.21566" lon="1.556">
        <ele>8.79</ele>
        <time>2013-04-29T14:30:14Z</time>
      </trkpt>
      <trkpt lat="50.21563" lon="1.5559">
        <ele>8.79</ele>
        <time>2013-04-29T14:30:21Z</time>
      </trkpt>
      <trkpt lat="50.21554" lon="1.55583">
        <ele>8.79</ele>
        <time>2013-04-29T14:30:36Z</time>
      </trkpt>
      <trkpt lat="50.21553" lon="1.55579">
        <ele>8.79</ele>
        <time>2013-04-29T14:30:41Z</time>
      </trkpt>
      <trkpt lat="50.21553" lon="1.55568">
        <ele>7.35</ele>
        <time>2013-04-29T14:30:50Z</time>
      </trkpt>
      <trkpt lat="50.21553" lon="1.55542">
        <ele>7.83</ele>
        <time>2013-04-29T14:31:05Z</time>
      </trkpt>
      <trkpt lat="50.21549" lon="1.55525">
        <ele>8.31</ele>
        <time>2013-04-29T14:31:15Z</time>
      </trkpt>
      <trkpt lat="50.21547" lon="1.55495">
        <ele>8.79</ele>
        <time>2013-04-29T14:31:32Z</time>
      </trkpt>
      <trkpt lat="50.21549" lon="1.55487">
        <ele>8.79</ele>
        <time>2013-04-29T14:31:37Z</time>
      </trkpt>
      <trkpt lat="50.21549" lon="1.55489">
        <ele>7.83</ele>
        <time>2013-04-29T14:31:53Z</time>
      </trkpt>
      <trkpt lat="50.21548" lon="1.55478">
        <ele>8.79</ele>
        <time>2013-04-29T14:32:02Z</time>
      </trkpt>
      <trkpt lat="50.21548" lon="1.55461">
        <ele>8.31</ele>
        <time>2013-04-29T14:32:13Z</time>
      </trkpt>
      <trkpt lat="50.21542" lon="1.55447">
        <ele>8.79</ele>
        <time>2013-04-29T14:32:24Z</time>
      </trkpt>
      <trkpt lat="50.21527" lon="1.55437">
        <ele>8.79</ele>
        <time>2013-04-29T14:32:38Z</time>
      </trkpt>
      <trkpt lat="50.21526" lon="1.55435">
        <ele>8.79</ele>
        <time>2013-04-29T14:32:40Z</time>
      </trkpt>
      <trkpt lat="50.21526" lon="1.55427">
        <ele>9.27</ele>
        <time>2013-04-29T14:32:44Z</time>
      </trkpt>
      <trkpt lat="50.21527" lon="1.55386">
        <ele>9.27</ele>
        <time>2013-04-29T14:33:06Z</time>
      </trkpt>
      <trkpt lat="50.2153" lon="1.55356">
        <ele>9.27</ele>
        <time>2013-04-29T14:33:23Z</time>
      </trkpt>
      <trkpt lat="50.21529" lon="1.55354">
        <ele>9.27</ele>
        <time>2013-04-29T14:33:32Z</time>
      </trkpt>
      <trkpt lat="50.21528" lon="1.55349">
        <ele>9.27</ele>
        <time>2013-04-29T14:33:35Z</time>
      </trkpt>
      <trkpt lat="50.21525" lon="1.55319">
        <ele>10.23</ele>
        <time>2013-04-29T14:33:54Z</time>
      </trkpt>
      <trkpt lat="50.21523" lon="1.55299">
        <ele>11.19</ele>
        <time>2013-04-29T14:34:11Z</time>
      </trkpt>
      <trkpt lat="50.21524" lon="1.55288">
        <ele>12.63</ele>
        <time>2013-04-29T14:34:25Z</time>
      </trkpt>
      <trkpt lat="50.21523" lon="1.55269">
        <ele>13.12</ele>
        <time>2013-04-29T14:34:38Z</time>
      </trkpt>
      <trkpt lat="50.21524" lon="1.55261">
        <ele>11.19</ele>
        <time>2013-04-29T14:34:43Z</time>
      </trkpt>
      <trkpt lat="50.21524" lon="1.55248">
        <ele>7.83</ele>
        <time>2013-04-29T14:34:51Z</time>
      </trkpt>
      <trkpt lat="50.21522" lon="1.55244">
        <ele>10.71</ele>
        <time>2013-04-29T14:34:59Z</time>
      </trkpt>
      <trkpt lat="50.21521" lon="1.55234">
        <ele>11.19</ele>
        <time>2013-04-29T14:35:07Z</time>
      </trkpt>
      <trkpt lat="50.21521" lon="1.55215">
        <ele>9.27</ele>
        <time>2013-04-29T14:35:22Z</time>
      </trkpt>
      <trkpt lat="50.21522" lon="1.55214">
        <ele>9.75</ele>
        <time>2013-04-29T14:35:23Z</time>
      </trkpt>
      <trkpt lat="50.21522" lon="1.55196">
        <ele>8.31</ele>
        <time>2013-04-29T14:35:38Z</time>
      </trkpt>
      <trkpt lat="50.21521" lon="1.55207">
        <ele>7.35</ele>
        <time>2013-04-29T14:35:53Z</time>
      </trkpt>
      <trkpt lat="50.21521" lon="1.55208">
        <ele>7.35</ele>
        <time>2013-04-29T14:35:54Z</time>
      </trkpt>
      <trkpt lat="50.21518" lon="1.55215">
        <ele>7.83</ele>
        <time>2013-04-29T14:36:09Z</time>
      </trkpt>
      <trkpt lat="50.21508" lon="1.55227">
        <ele>9.27</ele>
        <time>2013-04-29T14:36:23Z</time>
      </trkpt>
      <trkpt lat="50.21496" lon="1.55231">
        <ele>9.27</ele>
        <time>2013-04-29T14:36:37Z</time>
      </trkpt>
      <trkpt lat="50.21495" lon="1.55229">
        <ele>9.75</ele>
        <time>2013-04-29T14:36:51Z</time>
      </trkpt>
      <trkpt lat="50.21496" lon="1.55225">
        <ele>7.83</ele>
        <time>2013-04-29T14:37:06Z</time>
      </trkpt>
      <trkpt lat="50.21496" lon="1.55218">
        <ele>10.23</ele>
        <time>2013-04-29T14:37:09Z</time>
      </trkpt>
      <trkpt lat="50.21494" lon="1.55187">
        <ele>10.23</ele>
        <time>2013-04-29T14:37:25Z</time>
      </trkpt>
      <trkpt lat="50.21491" lon="1.55159">
        <ele>9.75</ele>
        <time>2013-04-29T14:37:40Z</time>
      </trkpt>
      <trkpt lat="50.21488" lon="1.55122">
        <ele>9.75</ele>
        <time>2013-04-29T14:37:59Z</time>
      </trkpt>
      <trkpt lat="50.2148" lon="1.55081">
        <ele>9.75</ele>
        <time>2013-04-29T14:38:20Z</time>
      </trkpt>
      <trkpt lat="50.21474" lon="1.55045">
        <ele>9.75</ele>
        <time>2013-04-29T14:38:38Z</time>
      </trkpt>
      <trkpt lat="50.21473" lon="1.55038">
        <ele>7.83</ele>
        <time>2013-04-29T14:38:45Z</time>
      </trkpt>
      <trkpt lat="50.2147" lon="1.5502">
        <ele>9.27</ele>
        <time>2013-04-29T14:39:00Z</time>
      </trkpt>
      <trkpt lat="50.21465" lon="1.55003">
        <ele>9.27</ele>
        <time>2013-04-29T14:39:12Z</time>
      </trkpt>
      <trkpt lat="50.21458" lon="1.54968">
        <ele>9.27</ele>
        <time>2013-04-29T14:39:30Z</time>
      </trkpt>
      <trkpt lat="50.21451" lon="1.54934">
        <ele>9.27</ele>
        <time>2013-04-29T14:39:49Z</time>
      </trkpt>
      <trkpt lat="50.21443" lon="1.54895">
        <ele>8.79</ele>
        <time>2013-04-29T14:40:10Z</time>
      </trkpt>
      <trkpt lat="50.21435" lon="1.54859">
        <ele>9.27</ele>
        <time>2013-04-29T14:40:30Z</time>
      </trkpt>
      <trkpt lat="50.21428" lon="1.54824">
        <ele>9.27</ele>
        <time>2013-04-29T14:40:49Z</time>
      </trkpt>
      <trkpt lat="50.21422" lon="1.54797">
        <ele>9.75</ele>
        <time>2013-04-29T14:41:05Z</time>
      </trkpt>
      <trkpt lat="50.21415" lon="1.5476">
        <ele>9.27</ele>
        <time>2013-04-29T14:41:25Z</time>
      </trkpt>
      <trkpt lat="50.21407" lon="1.54722">
        <ele>9.27</ele>
        <time>2013-04-29T14:41:45Z</time>
      </trkpt>
      <trkpt lat="50.21398" lon="1.54682">
        <ele>9.27</ele>
        <time>2013-04-29T14:42:06Z</time>
      </trkpt>
      <trkpt lat="50.21391" lon="1.54646">
        <ele>9.27</ele>
        <time>2013-04-29T14:42:25Z</time>
      </trkpt>
      <trkpt lat="50.2139" lon="1.54621">
        <ele>8.31</ele>
        <time>2013-04-29T14:42:43Z</time>
      </trkpt>
      <trkpt lat="50.21395" lon="1.54604">
        <ele>6.87</ele>
        <time>2013-04-29T14:42:59Z</time>
      </trkpt>
      <trkpt lat="50.21394" lon="1.54605">
        <ele>6.87</ele>
        <time>2013-04-29T14:43:23Z</time>
      </trkpt>
      <trkpt lat="50.21394" lon="1.54606">
        <ele>6.39</ele>
        <time>2013-04-29T14:43:45Z</time>
      </trkpt>
      <trkpt lat="50.21394" lon="1.54606">
        <ele>6.39</ele>
        <time>2013-04-29T14:44:07Z</time>
      </trkpt>
      <trkpt lat="50.21395" lon="1.54605">
        <ele>6.39</ele>
        <time>2013-04-29T14:44:40Z</time>
      </trkpt>
      <trkpt lat="50.21396" lon="1.54609">
        <ele>6.39</ele>
        <time>2013-04-29T14:45:07Z</time>
      </trkpt>
      <trkpt lat="50.21395" lon="1.54609">
        <ele>4.46</ele>
        <time>2013-04-29T14:45:24Z</time>
      </trkpt>
      <trkpt lat="50.21395" lon="1.54609">
        <ele>6.87</ele>
        <time>2013-04-29T14:45:29Z</time>
      </trkpt>
      <trkpt lat="50.21396" lon="1.54609">
        <ele>6.87</ele>
        <time>2013-04-29T14:46:01Z</time>
      </trkpt>
      <trkpt lat="50.21396" lon="1.5461">
        <ele>9.27</ele>
        <time>2013-04-29T14:46:27Z</time>
      </trkpt>
      <trkpt lat="50.21396" lon="1.5461">
        <ele>7.35</ele>
        <time>2013-04-29T14:46:39Z</time>
      </trkpt>
      <trkpt lat="50.21396" lon="1.54609">
        <ele>5.42</ele>
        <time>2013-04-29T14:46:53Z</time>
      </trkpt>
      <trkpt lat="50.21396" lon="1.54609">
        <ele>6.87</ele>
        <time>2013-04-29T14:46:58Z</time>
      </trkpt>
      <trkpt lat="50.21396" lon="1.54607">
        <ele>7.35</ele>
        <time>2013-04-29T14:47:33Z</time>
      </trkpt>
      <trkpt lat="50.21397" lon="1.54608">
        <ele>7.35</ele>
        <time>2013-04-29T14:47:56Z</time>
      </trkpt>
      <trkpt lat="50.21396" lon="1.5461">
        <ele>7.83</ele>
        <time>2013-04-29T14:48:18Z</time>
      </trkpt>
      <trkpt lat="50.21397" lon="1.5461">
        <ele>7.35</ele>
        <time>2013-04-29T14:49:04Z</time>
      </trkpt>
      <trkpt lat="50.21397" lon="1.54609">
        <ele>7.35</ele>
        <time>2013-04-29T14:49:42Z</time>
      </trkpt>
      <trkpt lat="50.21396" lon="1.54609">
        <ele>7.35</ele>
        <time>2013-04-29T14:50:29Z</time>
      </trkpt>
      <trkpt lat="50.21398" lon="1.54608">
        <ele>8.31</ele>
        <time>2013-04-29T14:50:48Z</time>
      </trkpt>
      <trkpt lat="50.21392" lon="1.54619">
        <ele>8.79</ele>
        <time>2013-04-29T14:51:02Z</time>
      </trkpt>
      <trkpt lat="50.21384" lon="1.54612">
        <ele>8.31</ele>
        <time>2013-04-29T14:51:15Z</time>
      </trkpt>
      <trkpt lat="50.21384" lon="1.5461">
        <ele>8.31</ele>
        <time>2013-04-29T14:51:28Z</time>
      </trkpt>
      <trkpt lat="50.21383" lon="1.54606">
        <ele>8.31</ele>
        <time>2013-04-29T14:51:31Z</time>
      </trkpt>
      <trkpt lat="50.21381" lon="1.54592">
        <ele>8.79</ele>
        <time>2013-04-29T14:51:39Z</time>
      </trkpt>
      <trkpt lat="50.21374" lon="1.54562">
        <ele>8.31</ele>
        <time>2013-04-29T14:51:58Z</time>
      </trkpt>
      <trkpt lat="50.21373" lon="1.54559">
        <ele>9.75</ele>
        <time>2013-04-29T14:52:00Z</time>
      </trkpt>
      <trkpt lat="50.21368" lon="1.54531">
        <ele>9.75</ele>
        <time>2013-04-29T14:52:16Z</time>
      </trkpt>
      <trkpt lat="50.21363" lon="1.54515">
        <ele>7.83</ele>
        <time>2013-04-29T14:52:25Z</time>
      </trkpt>
      <trkpt lat="50.21363" lon="1.54513">
        <ele>9.75</ele>
        <time>2013-04-29T14:52:27Z</time>
      </trkpt>
      <trkpt lat="50.21355" lon="1.54478">
        <ele>9.27</ele>
        <time>2013-04-29T14:52:47Z</time>
      </trkpt>
      <trkpt lat="50.21353" lon="1.54463">
        <ele>9.27</ele>
        <time>2013-04-29T14:52:55Z</time>
      </trkpt>
      <trkpt lat="50.21347" lon="1.54442">
        <ele>10.23</ele>
        <time>2013-04-29T14:53:10Z</time>
      </trkpt>
      <trkpt lat="50.21337" lon="1.54409">
        <ele>9.75</ele>
        <time>2013-04-29T14:53:29Z</time>
      </trkpt>
      <trkpt lat="50.21333" lon="1.54395">
        <ele>9.75</ele>
        <time>2013-04-29T14:53:38Z</time>
      </trkpt>
      <trkpt lat="50.21324" lon="1.54365">
        <ele>9.75</ele>
        <time>2013-04-29T14:53:55Z</time>
      </trkpt>
      <trkpt lat="50.21311" lon="1.54332">
        <ele>9.27</ele>
        <time>2013-04-29T14:54:15Z</time>
      </trkpt>
      <trkpt lat="50.21302" lon="1.54305">
        <ele>8.79</ele>
        <time>2013-04-29T14:54:32Z</time>
      </trkpt>
      <trkpt lat="50.21291" lon="1.54276">
        <ele>9.27</ele>
        <time>2013-04-29T14:54:50Z</time>
      </trkpt>
      <trkpt lat="50.2128" lon="1.54248">
        <ele>8.79</ele>
        <time>2013-04-29T14:55:08Z</time>
      </trkpt>
      <trkpt lat="50.21272" lon="1.54225">
        <ele>8.79</ele>
        <time>2013-04-29T14:55:21Z</time>
      </trkpt>
      <trkpt lat="50.21267" lon="1.5421">
        <ele>8.79</ele>
        <time>2013-04-29T14:55:35Z</time>
      </trkpt>
      <trkpt lat="50.21255" lon="1.54177">
        <ele>9.27</ele>
        <time>2013-04-29T14:55:54Z</time>
      </trkpt>
      <trkpt lat="50.21243" lon="1.54146">
        <ele>8.79</ele>
        <time>2013-04-29T14:56:13Z</time>
      </trkpt>
      <trkpt lat="50.21234" lon="1.5412">
        <ele>8.79</ele>
        <time>2013-04-29T14:56:28Z</time>
      </trkpt>
      <trkpt lat="50.21223" lon="1.54089">
        <ele>8.79</ele>
        <time>2013-04-29T14:56:46Z</time>
      </trkpt>
      <trkpt lat="50.21217" lon="1.54074">
        <ele>8.79</ele>
        <time>2013-04-29T14:56:55Z</time>
      </trkpt>
      <trkpt lat="50.21202" lon="1.54038">
        <ele>8.31</ele>
        <time>2013-04-29T14:57:16Z</time>
      </trkpt>
      <trkpt lat="50.21191" lon="1.54009">
        <ele>8.31</ele>
        <time>2013-04-29T14:57:34Z</time>
      </trkpt>
      <trkpt lat="50.2118" lon="1.53981">
        <ele>8.79</ele>
        <time>2013-04-29T14:57:51Z</time>
      </trkpt>
      <trkpt lat="50.21171" lon="1.53957">
        <ele>8.31</ele>
        <time>2013-04-29T14:58:07Z</time>
      </trkpt>
      <trkpt lat="50.21159" lon="1.53923">
        <ele>7.83</ele>
        <time>2013-04-29T14:58:25Z</time>
      </trkpt>
      <trkpt lat="50.21146" lon="1.53892">
        <ele>7.83</ele>
        <time>2013-04-29T14:58:44Z</time>
      </trkpt>
      <trkpt lat="50.21134" lon="1.53855">
        <ele>7.83</ele>
        <time>2013-04-29T14:59:04Z</time>
      </trkpt>
      <trkpt lat="50.21122" lon="1.53823">
        <ele>7.83</ele>
        <time>2013-04-29T14:59:23Z</time>
      </trkpt>
      <trkpt lat="50.21108" lon="1.53789">
        <ele>8.31</ele>
        <time>2013-04-29T14:59:43Z</time>
      </trkpt>
      <trkpt lat="50.21097" lon="1.53759">
        <ele>7.83</ele>
        <time>2013-04-29T15:00:00Z</time>
      </trkpt>
      <trkpt lat="50.21085" lon="1.53729">
        <ele>8.31</ele>
        <time>2013-04-29T15:00:19Z</time>
      </trkpt>
      <trkpt lat="50.21074" lon="1.53698">
        <ele>8.31</ele>
        <time>2013-04-29T15:00:37Z</time>
      </trkpt>
      <trkpt lat="50.21058" lon="1.53663">
        <ele>8.79</ele>
        <time>2013-04-29T15:00:58Z</time>
      </trkpt>
      <trkpt lat="50.21046" lon="1.53627">
        <ele>8.31</ele>
        <time>2013-04-29T15:01:17Z</time>
      </trkpt>
      <trkpt lat="50.21045" lon="1.53622">
        <ele>8.31</ele>
        <time>2013-04-29T15:01:20Z</time>
      </trkpt>
      <trkpt lat="50.21032" lon="1.53595">
        <ele>8.31</ele>
        <time>2013-04-29T15:01:38Z</time>
      </trkpt>
      <trkpt lat="50.21021" lon="1.53567">
        <ele>7.83</ele>
        <time>2013-04-29T15:01:56Z</time>
      </trkpt>
      <trkpt lat="50.21009" lon="1.53535">
        <ele>7.35</ele>
        <time>2013-04-29T15:02:14Z</time>
      </trkpt>
      <trkpt lat="50.21006" lon="1.53529">
        <ele>7.35</ele>
        <time>2013-04-29T15:02:18Z</time>
      </trkpt>
      <trkpt lat="50.21002" lon="1.53521">
        <ele>8.79</ele>
        <time>2013-04-29T15:02:23Z</time>
      </trkpt>
      <trkpt lat="50.20997" lon="1.53507">
        <ele>6.87</ele>
        <time>2013-04-29T15:02:30Z</time>
      </trkpt>
      <trkpt lat="50.20987" lon="1.53483">
        <ele>8.79</ele>
        <time>2013-04-29T15:02:48Z</time>
      </trkpt>
      <trkpt lat="50.20975" lon="1.53456">
        <ele>8.79</ele>
        <time>2013-04-29T15:03:04Z</time>
      </trkpt>
      <trkpt lat="50.20973" lon="1.53452">
        <ele>6.87</ele>
        <time>2013-04-29T15:03:07Z</time>
      </trkpt>
      <trkpt lat="50.2096" lon="1.53421">
        <ele>8.31</ele>
        <time>2013-04-29T15:03:24Z</time>
      </trkpt>
      <trkpt lat="50.20947" lon="1.53398">
        <ele>8.31</ele>
        <time>2013-04-29T15:03:42Z</time>
      </trkpt>
      <trkpt lat="50.20933" lon="1.53369">
        <ele>8.31</ele>
        <time>2013-04-29T15:03:59Z</time>
      </trkpt>
      <trkpt lat="50.20921" lon="1.53347">
        <ele>7.83</ele>
        <time>2013-04-29T15:04:15Z</time>
      </trkpt>
      <trkpt lat="50.20906" lon="1.53315">
        <ele>7.83</ele>
        <time>2013-04-29T15:04:32Z</time>
      </trkpt>
      <trkpt lat="50.20895" lon="1.53299">
        <ele>7.83</ele>
        <time>2013-04-29T15:04:47Z</time>
      </trkpt>
      <trkpt lat="50.20878" lon="1.53269">
        <ele>7.83</ele>
        <time>2013-04-29T15:05:04Z</time>
      </trkpt>
      <trkpt lat="50.20864" lon="1.53239">
        <ele>7.83</ele>
        <time>2013-04-29T15:05:23Z</time>
      </trkpt>
      <trkpt lat="50.20849" lon="1.53215">
        <ele>7.35</ele>
        <time>2013-04-29T15:05:40Z</time>
      </trkpt>
      <trkpt lat="50.20836" lon="1.53193">
        <ele>7.35</ele>
        <time>2013-04-29T15:05:56Z</time>
      </trkpt>
      <trkpt lat="50.20833" lon="1.53187">
        <ele>6.39</ele>
        <time>2013-04-29T15:06:02Z</time>
      </trkpt>
      <trkpt lat="50.20829" lon="1.53176">
        <ele>7.83</ele>
        <time>2013-04-29T15:06:08Z</time>
      </trkpt>
      <trkpt lat="50.20826" lon="1.53172">
        <ele>7.35</ele>
        <time>2013-04-29T15:06:11Z</time>
      </trkpt>
      <trkpt lat="50.20825" lon="1.53169">
        <ele>6.87</ele>
        <time>2013-04-29T15:06:15Z</time>
      </trkpt>
      <trkpt lat="50.20824" lon="1.53167">
        <ele>7.35</ele>
        <time>2013-04-29T15:06:20Z</time>
      </trkpt>
      <trkpt lat="50.20817" lon="1.53155">
        <ele>7.35</ele>
        <time>2013-04-29T15:06:29Z</time>
      </trkpt>
      <trkpt lat="50.20801" lon="1.53126">
        <ele>7.35</ele>
        <time>2013-04-29T15:06:48Z</time>
      </trkpt>
      <trkpt lat="50.20785" lon="1.53096">
        <ele>7.83</ele>
        <time>2013-04-29T15:07:07Z</time>
      </trkpt>
      <trkpt lat="50.20772" lon="1.53071">
        <ele>7.35</ele>
        <time>2013-04-29T15:07:25Z</time>
      </trkpt>
      <trkpt lat="50.20756" lon="1.53043">
        <ele>7.83</ele>
        <time>2013-04-29T15:07:43Z</time>
      </trkpt>
      <trkpt lat="50.2074" lon="1.53014">
        <ele>7.83</ele>
        <time>2013-04-29T15:08:02Z</time>
      </trkpt>
      <trkpt lat="50.20723" lon="1.52984">
        <ele>7.83</ele>
        <time>2013-04-29T15:08:23Z</time>
      </trkpt>
      <trkpt lat="50.20721" lon="1.5298">
        <ele>6.87</ele>
        <time>2013-04-29T15:08:25Z</time>
      </trkpt>
      <trkpt lat="50.2072" lon="1.52978">
        <ele>8.31</ele>
        <time>2013-04-29T15:08:26Z</time>
      </trkpt>
      <trkpt lat="50.20718" lon="1.52977">
        <ele>8.31</ele>
        <time>2013-04-29T15:08:27Z</time>
      </trkpt>
      <trkpt lat="50.20704" lon="1.5295">
        <ele>7.35</ele>
        <time>2013-04-29T15:08:46Z</time>
      </trkpt>
      <trkpt lat="50.20686" lon="1.52919">
        <ele>7.83</ele>
        <time>2013-04-29T15:09:06Z</time>
      </trkpt>
      <trkpt lat="50.20672" lon="1.5289">
        <ele>7.35</ele>
        <time>2013-04-29T15:09:24Z</time>
      </trkpt>
      <trkpt lat="50.20656" lon="1.52863">
        <ele>7.83</ele>
        <time>2013-04-29T15:09:44Z</time>
      </trkpt>
      <trkpt lat="50.20638" lon="1.52832">
        <ele>7.35</ele>
        <time>2013-04-29T15:10:03Z</time>
      </trkpt>
      <trkpt lat="50.20624" lon="1.52806">
        <ele>7.35</ele>
        <time>2013-04-29T15:10:22Z</time>
      </trkpt>
      <trkpt lat="50.20607" lon="1.52778">
        <ele>7.35</ele>
        <time>2013-04-29T15:10:38Z</time>
      </trkpt>
      <trkpt lat="50.20592" lon="1.52752">
        <ele>5.91</ele>
        <time>2013-04-29T15:10:57Z</time>
      </trkpt>
      <trkpt lat="50.20582" lon="1.52734">
        <ele>7.35</ele>
        <time>2013-04-29T15:11:08Z</time>
      </trkpt>
      <trkpt lat="50.20579" lon="1.52728">
        <ele>4.94</ele>
        <time>2013-04-29T15:11:12Z</time>
      </trkpt>
      <trkpt lat="50.20568" lon="1.52708">
        <ele>4.46</ele>
        <time>2013-04-29T15:11:24Z</time>
      </trkpt>
      <trkpt lat="50.20567" lon="1.52707">
        <ele>7.83</ele>
        <time>2013-04-29T15:11:26Z</time>
      </trkpt>
      <trkpt lat="50.20566" lon="1.52706">
        <ele>7.35</ele>
        <time>2013-04-29T15:11:27Z</time>
      </trkpt>
      <trkpt lat="50.20565" lon="1.52704">
        <ele>7.35</ele>
        <time>2013-04-29T15:11:28Z</time>
      </trkpt>
      <trkpt lat="50.20564" lon="1.52703">
        <ele>7.35</ele>
        <time>2013-04-29T15:11:29Z</time>
      </trkpt>
      <trkpt lat="50.20563" lon="1.52702">
        <ele>7.35</ele>
        <time>2013-04-29T15:11:30Z</time>
      </trkpt>
      <trkpt lat="50.20562" lon="1.527">
        <ele>7.35</ele>
        <time>2013-04-29T15:11:31Z</time>
      </trkpt>
      <trkpt lat="50.20561" lon="1.52698">
        <ele>6.39</ele>
        <time>2013-04-29T15:11:33Z</time>
      </trkpt>
      <trkpt lat="50.20546" lon="1.52669">
        <ele>6.87</ele>
        <time>2013-04-29T15:11:50Z</time>
      </trkpt>
      <trkpt lat="50.20535" lon="1.52649">
        <ele>4.94</ele>
        <time>2013-04-29T15:12:02Z</time>
      </trkpt>
      <trkpt lat="50.20527" lon="1.52635">
        <ele>6.39</ele>
        <time>2013-04-29T15:12:12Z</time>
      </trkpt>
      <trkpt lat="50.20525" lon="1.52634">
        <ele>6.87</ele>
        <time>2013-04-29T15:12:13Z</time>
      </trkpt>
      <trkpt lat="50.20524" lon="1.52633">
        <ele>6.87</ele>
        <time>2013-04-29T15:12:14Z</time>
      </trkpt>
      <trkpt lat="50.20511" lon="1.52609">
        <ele>6.39</ele>
        <time>2013-04-29T15:12:33Z</time>
      </trkpt>
      <trkpt lat="50.20496" lon="1.52577">
        <ele>5.42</ele>
        <time>2013-04-29T15:12:49Z</time>
      </trkpt>
      <trkpt lat="50.20491" lon="1.52568">
        <ele>4.94</ele>
        <time>2013-04-29T15:12:54Z</time>
      </trkpt>
      <trkpt lat="50.20489" lon="1.52564">
        <ele>6.39</ele>
        <time>2013-04-29T15:12:58Z</time>
      </trkpt>
      <trkpt lat="50.20483" lon="1.52552">
        <ele>6.39</ele>
        <time>2013-04-29T15:13:08Z</time>
      </trkpt>
      <trkpt lat="50.20482" lon="1.52551">
        <ele>6.39</ele>
        <time>2013-04-29T15:13:09Z</time>
      </trkpt>
      <trkpt lat="50.20481" lon="1.52549">
        <ele>6.39</ele>
        <time>2013-04-29T15:13:10Z</time>
      </trkpt>
      <trkpt lat="50.20465" lon="1.5252">
        <ele>5.91</ele>
        <time>2013-04-29T15:13:28Z</time>
      </trkpt>
      <trkpt lat="50.20444" lon="1.52489">
        <ele>5.91</ele>
        <time>2013-04-29T15:13:51Z</time>
      </trkpt>
      <trkpt lat="50.20433" lon="1.52466">
        <ele>5.91</ele>
        <time>2013-04-29T15:14:03Z</time>
      </trkpt>
      <trkpt lat="50.20432" lon="1.52465">
        <ele>5.91</ele>
        <time>2013-04-29T15:14:04Z</time>
      </trkpt>
      <trkpt lat="50.20416" lon="1.52442">
        <ele>5.42</ele>
        <time>2013-04-29T15:14:19Z</time>
      </trkpt>
      <trkpt lat="50.20403" lon="1.52419">
        <ele>5.91</ele>
        <time>2013-04-29T15:14:36Z</time>
      </trkpt>
      <trkpt lat="50.20385" lon="1.52393">
        <ele>6.39</ele>
        <time>2013-04-29T15:14:55Z</time>
      </trkpt>
      <trkpt lat="50.2037" lon="1.52359">
        <ele>4.94</ele>
        <time>2013-04-29T15:15:14Z</time>
      </trkpt>
      <trkpt lat="50.20367" lon="1.52353">
        <ele>5.42</ele>
        <time>2013-04-29T15:15:18Z</time>
      </trkpt>
      <trkpt lat="50.20362" lon="1.52346">
        <ele>6.39</ele>
        <time>2013-04-29T15:15:26Z</time>
      </trkpt>
      <trkpt lat="50.20352" lon="1.52328">
        <ele>5.91</ele>
        <time>2013-04-29T15:15:40Z</time>
      </trkpt>
      <trkpt lat="50.20343" lon="1.52314">
        <ele>5.91</ele>
        <time>2013-04-29T15:15:53Z</time>
      </trkpt>
      <trkpt lat="50.20336" lon="1.52329">
        <ele>6.87</ele>
        <time>2013-04-29T15:16:08Z</time>
      </trkpt>
      <trkpt lat="50.20331" lon="1.5233">
        <ele>6.87</ele>
        <time>2013-04-29T15:16:12Z</time>
      </trkpt>
      <trkpt lat="50.20318" lon="1.52321">
        <ele>6.39</ele>
        <time>2013-04-29T15:16:26Z</time>
      </trkpt>
      <trkpt lat="50.20312" lon="1.52322">
        <ele>6.87</ele>
        <time>2013-04-29T15:16:31Z</time>
      </trkpt>
      <trkpt lat="50.20311" lon="1.52323">
        <ele>6.87</ele>
        <time>2013-04-29T15:16:32Z</time>
      </trkpt>
      <trkpt lat="50.203" lon="1.52331">
        <ele>6.87</ele>
        <time>2013-04-29T15:16:44Z</time>
      </trkpt>
      <trkpt lat="50.20299" lon="1.52333">
        <ele>6.87</ele>
        <time>2013-04-29T15:16:45Z</time>
      </trkpt>
      <trkpt lat="50.20296" lon="1.52337">
        <ele>6.39</ele>
        <time>2013-04-29T15:16:50Z</time>
      </trkpt>
      <trkpt lat="50.20295" lon="1.52338">
        <ele>6.39</ele>
        <time>2013-04-29T15:16:51Z</time>
      </trkpt>
      <trkpt lat="50.20283" lon="1.52344">
        <ele>5.91</ele>
        <time>2013-04-29T15:17:03Z</time>
      </trkpt>
      <trkpt lat="50.20277" lon="1.52345">
        <ele>5.91</ele>
        <time>2013-04-29T15:17:07Z</time>
      </trkpt>
      <trkpt lat="50.20268" lon="1.5234">
        <ele>6.39</ele>
        <time>2013-04-29T15:17:21Z</time>
      </trkpt>
      <trkpt lat="50.20268" lon="1.52339">
        <ele>5.91</ele>
        <time>2013-04-29T15:17:25Z</time>
      </trkpt>
      <trkpt lat="50.20262" lon="1.52331">
        <ele>5.91</ele>
        <time>2013-04-29T15:17:31Z</time>
      </trkpt>
      <trkpt lat="50.2026" lon="1.52323">
        <ele>4.46</ele>
        <time>2013-04-29T15:17:38Z</time>
      </trkpt>
      <trkpt lat="50.2026" lon="1.52322">
        <ele>5.42</ele>
        <time>2013-04-29T15:17:45Z</time>
      </trkpt>
    </trkseg>
  </trk>
</gpx>